Latitude: N 50° 09' 49" Longitude: W 05° 11' 53" Elevation: 168m ASL

There are 22 visitors online

Adverts

<- Previous Day | Today | Next Day ->

All Data for 07 December 2017

Time
A - D
Temp
A - D
Dew Point
A - D
Humidity
A - D
Pressure
A - D
Wind
A - D
Wind Dir Gust
A - D
Rain Rate
A - D
Rain Total
23:50 6.2 4.0 86 1019.5 15.9 W 19.7 0.0 2.2
23:25 6.0 4.2 88 1019.4 12.1 W 19.0 0.0 2.2
23:30 6.0 4.2 88 1019.4 14.5 W 19.7 0.0 2.2
23:33 6.0 4.0 87 1019.4 15.9 E 19.7 0.0 2.2
23:34 6.0 4.0 87 1019.4 19.0 NW 19.7 0.0 2.2
23:48 6.1 3.9 86 1019.4 14.5 W 19.7 0.0 2.2
23:51 6.2 4.0 86 1019.4 14.5 W 19.7 0.0 2.2
23:58 6.2 3.9 85 1019.4 16.8 W 23.5 0.0 2.2
23:18 6.0 4.3 89 1019.3 15.2 W 16.8 0.0 2.2
23:22 6.0 4.3 89 1019.3 19.0 W 19.0 0.0 2.2
23:24 6.1 4.3 88 1019.3 10.7 W 19.0 0.0 2.2
23:27 6.0 4.2 88 1019.3 13.0 WNW 19.0 0.0 2.2
23:28 6.0 4.2 88 1019.3 19.7 W 19.7 0.0 2.2
23:31 6.0 4.2 88 1019.3 13.6 W 19.7 0.0 2.2
23:35 6.0 4.0 87 1019.3 16.8 W 19.7 0.0 2.2
23:42 6.1 3.9 86 1019.3 15.2 NW 19.7 0.0 2.2
23:47 6.1 3.9 86 1019.3 17.4 NW 19.7 0.0 2.2
23:49 6.1 3.9 86 1019.3 12.1 N 19.7 0.0 2.2
23:53 6.2 4.0 86 1019.3 17.4 NW 19.7 0.0 2.2
23:55 6.2 4.0 86 1019.3 17.4 NW 19.7 0.0 2.2
23:56 6.2 3.9 85 1019.3 23.5 NW 23.5 0.0 2.2
22:57 6.2 4.2 87 1019.2 15.2 W 19.7 0.0 2.1
23:05 6.1 4.1 87 1019.2 11.4 W 16.8 0.0 2.1
23:15 6.0 4.3 89 1019.2 16.8 W 16.8 0.0 2.2
23:16 6.0 4.3 89 1019.2 16.8 W 16.8 0.0 2.2
23:21 6.0 4.3 89 1019.2 14.5 W 16.8 0.0 2.2
23:29 6.0 4.2 88 1019.2 14.5 W 19.7 0.0 2.2
23:32 6.0 4.0 87 1019.2 17.4 NW 19.7 0.0 2.2
23:38 6.0 4.0 87 1019.2 19.0 WNW 19.7 0.0 2.2
23:40 6.1 3.9 86 1019.2 15.9 W 19.7 0.0 2.2
23:41 6.1 3.9 86 1019.2 12.1 SW 19.7 0.0 2.2
23:44 6.1 3.9 86 1019.2 13.0 N 19.7 0.0 2.2
23:45 6.1 3.9 86 1019.2 18.3 W 19.7 0.0 2.2
23:52 6.2 4.0 86 1019.2 15.2 W 19.7 0.0 2.2
23:57 6.2 3.9 85 1019.2 14.5 W 23.5 0.0 2.2
22:55 6.3 4.1 86 1019.1 13.0 NW 19.7 0.0 2.1
23:08 6.1 4.3 88 1019.1 13.0 W 16.8 0.0 2.1
23:10 6.1 4.3 88 1019.1 14.5 NW 16.8 0.8 2.2
23:13 6.0 4.3 89 1019.1 11.4 W 15.2 0.8 2.2
23:20 6.0 4.3 89 1019.1 15.9 SW 16.8 0.0 2.2
23:23 6.0 4.2 88 1019.1 14.5 W 19.0 0.0 2.2
23:37 6.0 4.0 87 1019.1 15.9 W 19.7 0.0 2.2
23:39 6.0 4.0 87 1019.1 15.9 W 19.0 0.0 2.2
23:43 6.1 3.9 86 1019.1 13.6 W 19.7 0.0 2.2
22:56 6.2 4.0 86 1019.0 12.1 W 19.7 0.0 2.1
22:58 6.2 4.2 87 1019.0 15.2 W 19.7 0.0 2.1
23:01 6.2 4.2 87 1019.0 16.8 W 19.7 0.0 2.1
23:02 6.1 4.1 87 1019.0 14.5 NW 19.7 0.0 2.1
23:06 6.1 4.1 87 1019.0 13.0 W 16.8 0.0 2.1
23:11 6.1 4.3 88 1019.0 12.1 W 16.8 0.8 2.2
22:49 6.3 4.0 85 1018.9 9.2 NW 19.0 0.0 2.1
22:51 6.3 4.0 85 1018.9 12.1 NW 19.0 0.0 2.1
22:59 6.2 4.2 87 1018.9 15.9 NW 19.7 0.0 2.1
23:03 6.1 4.1 87 1018.9 13.6 NW 16.8 0.0 2.1
22:24 6.3 4.5 88 1018.8 13.6 SW 14.5 0.0 2.1
22:25 6.4 4.6 88 1018.8 19.0 NW 19.0 0.0 2.1
22:34 6.4 4.4 87 1018.8 13.6 W 19.0 0.0 2.1
22:35 6.4 4.4 87 1018.8 9.8 W 19.0 0.0 2.1
22:44 6.3 4.1 86 1018.8 13.0 W 17.4 0.0 2.1
22:54 6.3 4.1 86 1018.8 15.9 SW 19.7 0.0 2.1
23:04 6.1 4.1 87 1018.8 12.1 W 16.8 0.0 2.1
21:14 6.4 4.7 89 1018.7 13.6 NW 13.6 0.0 2.1
21:17 6.4 4.7 89 1018.7 6.9 W 13.6 0.0 2.1
21:20 6.4 4.6 88 1018.7 14.5 SW 15.2 0.0 2.1
21:48 6.3 4.3 87 1018.7 9.2 NW 15.2 0.0 2.1
22:03 6.3 4.5 88 1018.7 8.3 W 13.0 0.0 2.1
22:16 6.3 4.5 88 1018.7 14.5 W 14.5 0.0 2.1
22:20 6.3 4.5 88 1018.7 7.6 W 14.5 0.0 2.1
22:21 6.3 4.5 88 1018.7 11.4 SW 14.5 0.0 2.1
22:22 6.3 4.5 88 1018.7 13.0 NW 14.5 0.0 2.1
22:27 6.3 4.3 87 1018.7 12.1 W 19.0 0.0 2.1
22:29 6.4 4.4 87 1018.7 10.7 W 19.0 0.0 2.1
22:32 6.4 4.4 87 1018.7 10.7 W 19.0 0.0 2.1
22:33 6.3 4.3 87 1018.7 9.2 W 19.0 0.0 2.1
22:36 6.3 4.3 87 1018.7 17.4 NW 17.4 0.0 2.1
22:37 6.4 4.4 87 1018.7 15.2 W 17.4 0.0 2.1
22:38 6.3 4.1 86 1018.7 11.4 SW 17.4 0.0 2.1
22:39 6.3 4.1 86 1018.7 10.7 W 17.4 0.0 2.1
22:40 6.4 4.2 86 1018.7 16.8 NW 17.4 0.0 2.1
22:42 6.3 4.1 86 1018.7 13.0 NW 17.4 0.0 2.1
22:43 6.3 4.1 86 1018.7 11.4 W 17.4 0.0 2.1
22:46 6.3 4.1 86 1018.7 19.0 NW 19.0 0.0 2.1
22:47 6.3 4.1 86 1018.7 7.6 W 19.0 0.0 2.1
22:48 6.3 4.1 86 1018.7 10.7 W 19.0 0.0 2.1
22:52 6.3 4.0 85 1018.7 19.7 NW 19.7 0.0 2.1
22:53 6.4 4.2 86 1018.7 19.0 NW 19.7 0.0 2.1
20:36 6.5 5.1 91 1018.6 8.3 W 15.9 0.0 2.1
20:40 6.5 5.1 91 1018.6 14.5 NW 15.9 0.0 2.1
20:45 6.5 5.1 91 1018.6 12.1 NW 14.5 0.0 2.1
20:46 6.6 5.2 91 1018.6 14.5 S 14.5 0.0 2.1
20:49 6.6 5.1 90 1018.6 10.7 W 14.5 0.0 2.1
20:53 6.5 5.0 90 1018.6 8.3 W 14.5 0.0 2.1
21:01 6.5 4.8 89 1018.6 7.6 W 13.6 0.0 2.1
21:04 6.5 4.8 89 1018.6 7.6 W 13.6 0.0 2.1
21:19 6.4 4.7 89 1018.6 13.0 W 13.6 0.0 2.1
21:27 6.5 4.5 87 1018.6 13.0 NW 18.3 0.0 2.1
21:33 6.4 4.4 87 1018.6 11.4 W 18.3 0.0 2.1
21:34 6.4 4.4 87 1018.6 12.1 NW 18.3 0.0 2.1
21:36 6.4 4.4 87 1018.6 15.2 NW 15.2 0.0 2.1
21:40 6.4 4.4 87 1018.6 8.3 SW 15.2 0.0 2.1
21:43 6.3 4.3 87 1018.6 6.9 W 15.2 0.0 2.1
21:59 6.3 4.5 88 1018.6 9.8 W 13.0 0.0 2.1
22:00 6.3 4.5 88 1018.6 8.3 W 13.0 0.0 2.1
22:01 6.3 4.5 88 1018.6 8.3 W 13.0 0.0 2.1
22:04 6.3 4.5 88 1018.6 8.3 W 9.8 0.0 2.1
22:05 6.3 4.5 88 1018.6 8.3 W 9.8 0.0 2.1
22:10 6.2 4.4 88 1018.6 8.3 W 13.6 0.0 2.1
22:13 6.2 4.4 88 1018.6 9.8 SW 13.6 0.0 2.1
22:15 6.3 4.5 88 1018.6 11.4 NW 13.6 0.0 2.1
22:18 6.3 4.5 88 1018.6 13.6 W 14.5 0.0 2.1
22:28 6.3 4.3 87 1018.6 15.2 W 19.0 0.0 2.1
22:30 6.3 4.3 87 1018.6 10.7 SW 19.0 0.0 2.1
22:45 6.4 4.2 86 1018.6 11.4 W 17.4 0.0 2.1
20:35 6.5 5.1 91 1018.5 8.3 SW 15.9 0.0 2.1
20:38 6.4 5.0 91 1018.5 13.6 NW 15.9 0.0 2.1
20:39 6.5 5.1 91 1018.5 10.7 NW 15.9 0.0 2.1
20:41 6.5 5.1 91 1018.5 7.6 SW 14.5 0.0 2.1
20:47 6.6 5.2 91 1018.5 12.1 SW 14.5 0.0 2.1
20:48 6.6 5.2 91 1018.5 13.6 W 14.5 0.0 2.1
20:54 6.5 5.0 90 1018.5 9.8 W 14.5 0.0 2.1
20:56 6.5 5.0 90 1018.5 13.6 SW 14.5 0.0 2.1
21:26 6.5 4.7 88 1018.5 9.8 W 18.3 0.0 2.1
21:29 6.5 4.5 87 1018.5 9.2 WNW 18.3 0.0 2.1
21:31 6.5 4.5 87 1018.5 13.0 NW 18.3 0.0 2.1
21:38 6.4 4.4 87 1018.5 8.3 SW 15.2 0.0 2.1
21:39 6.4 4.4 87 1018.5 7.6 W 15.2 0.0 2.1
21:45 6.4 4.4 87 1018.5 9.8 NW 15.2 0.0 2.1
21:46 6.3 4.3 87 1018.5 12.1 NW 12.1 0.0 2.1
21:55 6.3 4.5 88 1018.5 9.8 NW 15.2 0.0 2.1
21:57 6.4 4.6 88 1018.5 9.2 W 15.2 0.0 2.1
22:02 6.3 4.5 88 1018.5 8.3 W 13.0 0.0 2.1
22:08 6.2 4.4 88 1018.5 8.3 W 11.4 0.0 2.1
22:11 6.2 4.4 88 1018.5 7.6 W 13.6 0.0 2.1
20:27 6.5 5.3 92 1018.4 10.7 W 14.5 0.0 2.1
20:42 6.5 5.1 91 1018.4 13.0 WSW 14.5 0.0 2.1
20:43 6.5 5.1 91 1018.4 9.2 NW 14.5 0.0 2.1
20:50 6.6 5.1 90 1018.4 9.8 W 14.5 0.0 2.1
20:52 6.5 5.0 90 1018.4 11.4 SW 14.5 0.0 2.1
21:02 6.5 4.8 89 1018.4 7.6 W 13.6 0.0 2.1
21:06 6.4 4.7 89 1018.4 7.6 SW 13.6 0.0 2.1
21:10 6.4 4.7 89 1018.4 9.2 SW 11.4 0.0 2.1
21:12 6.4 4.7 89 1018.4 13.0 W 13.0 0.0 2.1
21:15 6.4 4.7 89 1018.4 13.0 W 13.6 0.0 2.1
21:22 6.5 4.7 88 1018.4 10.7 S 18.3 0.0 2.1
21:24 6.5 4.7 88 1018.4 13.6 NW 18.3 0.0 2.1
21:25 6.5 4.7 88 1018.4 13.0 SW 18.3 0.0 2.1
21:30 6.5 4.5 87 1018.4 10.7 SW 18.3 0.0 2.1
21:35 6.4 4.4 87 1018.4 10.7 NW 18.3 0.0 2.1
21:41 6.3 4.3 87 1018.4 6.9 S 15.2 0.0 2.1
21:42 6.3 4.3 87 1018.4 12.1 NW 15.2 0.0 2.1
21:44 6.3 4.3 87 1018.4 9.2 W 15.2 0.0 2.1
21:47 6.3 4.3 87 1018.4 15.2 W 15.2 0.0 2.1
21:50 6.3 4.3 87 1018.4 9.2 W 15.2 0.0 2.1
21:51 6.3 4.3 87 1018.4 6.9 W 15.2 0.0 2.1
22:07 6.2 4.4 88 1018.4 11.4 W 11.4 0.0 2.1
22:26 6.3 4.5 88 1018.4 9.8 W 19.0 0.0 2.1
19:14 7.0 5.2 88 1018.3 12.1 NW 20.6 0.8 2.1
20:18 6.4 5.2 92 1018.3 6.9 W 16.8 0.0 2.1
20:19 6.4 5.2 92 1018.3 10.7 NW 10.7 0.0 2.1
20:20 6.4 5.2 92 1018.3 8.3 W 10.7 0.0 2.1
20:22 6.4 5.2 92 1018.3 8.3 W 14.5 0.0 2.1
20:23 6.4 5.2 92 1018.3 13.0 W 14.5 0.0 2.1
20:25 6.4 5.2 92 1018.3 8.3 W 14.5 0.0 2.1
20:26 6.4 5.2 92 1018.3 8.3 W 14.5 0.0 2.1
20:31 6.4 5.0 91 1018.3 15.9 NW 15.9 0.0 2.1
20:32 6.5 5.1 91 1018.3 9.8 SW 15.9 0.0 2.1
20:33 6.5 5.1 91 1018.3 7.6 NW 15.9 0.0 2.1
20:34 6.5 5.1 91 1018.3 9.2 W 15.9 0.0 2.1
21:52 6.3 4.5 88 1018.3 13.0 NW 15.2 0.0 2.1
21:54 6.3 4.5 88 1018.3 13.0 SW 15.2 0.0 2.1
21:58 6.3 4.5 88 1018.3 6.0 W 15.2 0.0 2.1
19:12 7.0 5.2 88 1018.2 20.6 WNW 20.6 0.0 2.0
19:15 6.9 5.2 89 1018.2 10.7 SW 20.6 1.5 2.1
19:17 6.8 5.1 89 1018.2 12.1 SW 20.6 1.5 2.1
19:18 6.7 5.0 89 1018.2 11.4 W 20.6 0.8 2.1
19:35 6.1 4.7 91 1018.2 7.6 W 10.7 0.0 2.1
19:54 6.2 5.2 93 1018.2 12.1 W 14.5 0.0 2.1
20:06 6.4 5.2 92 1018.2 8.3 NW 13.6 0.0 2.1
20:11 6.4 5.2 92 1018.2 9.8 N 16.8 0.0 2.1
20:14 6.3 5.1 92 1018.2 10.7 W 16.8 0.0 2.1
20:24 6.4 5.2 92 1018.2 8.3 NW 14.5 0.0 2.1
20:28 6.5 5.1 91 1018.2 10.7 W 14.5 0.0 2.1
20:29 6.4 5.0 91 1018.2 11.4 NW 14.5 0.0 2.1
18:47 7.5 5.1 85 1018.1 17.4 W 19.7 0.0 2.0
19:06 7.1 5.1 87 1018.1 9.2 WNW 14.5 0.0 2.0
19:08 7.1 5.1 87 1018.1 10.7 NW 13.0 0.0 2.0
19:09 7.1 5.1 87 1018.1 11.4 NW 14.5 0.0 2.0
19:19 6.6 4.9 89 1018.1 9.2 SW 20.6 0.8 2.1
19:20 6.6 4.9 89 1018.1 10.7 SW 20.6 0.8 2.1
19:24 6.4 4.9 90 1018.1 9.2 SW 19.7 0.8 2.1
19:25 6.4 4.9 90 1018.1 9.8 SW 12.1 0.0 2.1
19:30 6.2 4.8 91 1018.1 7.6 NW 11.4 0.0 2.1
19:36 6.1 4.9 92 1018.1 8.3 W 10.7 0.0 2.1
19:39 6.1 4.9 92 1018.1 6.0 SW 9.8 0.0 2.1
19:55 6.2 5.2 93 1018.1 12.1 SW 14.5 0.0 2.1
19:57 6.3 5.3 93 1018.1 11.4 W 14.5 0.0 2.1
19:59 6.3 5.3 93 1018.1 8.3 W 13.6 0.0 2.1
20:01 6.4 5.4 93 1018.1 9.8 W 13.6 0.0 2.1
20:02 6.4 5.4 93 1018.1 9.8 W 13.6 0.0 2.1
20:04 6.4 5.4 93 1018.1 9.8 W 13.6 0.0 2.1
20:07 6.3 5.1 92 1018.1 9.8 SW 10.7 0.0 2.1
20:09 6.3 5.1 92 1018.1 11.4 W 16.8 0.0 2.1
20:16 6.4 5.2 92 1018.1 8.3 W 16.8 0.0 2.1
18:38 7.3 4.8 84 1018.0 13.0 NW 15.2 0.0 2.0
18:43 7.4 4.9 84 1018.0 13.0 NW 15.2 0.0 2.0
18:46 7.5 5.1 85 1018.0 15.9 NW 19.7 0.0 2.0
18:55 7.4 5.2 86 1018.0 10.7 W 19.7 0.0 2.0
19:11 7.1 5.1 87 1018.0 16.8 W 16.8 0.0 2.0
19:21 6.5 5.0 90 1018.0 10.7 SW 20.6 0.8 2.1
19:23 6.5 5.0 90 1018.0 11.4 SW 19.7 0.8 2.1
19:26 6.4 4.9 90 1018.0 10.7 SW 12.1 0.0 2.1
19:27 6.3 4.9 91 1018.0 6.9 SW 12.1 0.0 2.1
19:28 6.3 4.9 91 1018.0 7.6 W 11.4 0.0 2.1
19:32 6.2 4.8 91 1018.0 6.9 W 11.4 0.0 2.1
19:33 6.1 4.7 91 1018.0 6.0 N 10.7 0.0 2.1
19:34 6.1 4.7 91 1018.0 9.8 NW 10.7 0.0 2.1
19:37 6.1 4.9 92 1018.0 7.6 W 9.8 0.0 2.1
19:42 6.0 4.8 92 1018.0 6.0 W 9.8 0.0 2.1
19:43 6.0 4.8 92 1018.0 6.0 SW 9.8 0.0 2.1
19:44 6.0 4.8 92 1018.0 6.0 W 9.8 0.0 2.1
19:45 6.0 5.0 93 1018.0 7.6 W 9.2 0.0 2.1
19:46 6.0 5.0 93 1018.0 9.2 SW 9.2 0.0 2.1
19:47 6.1 5.1 93 1018.0 6.9 W 9.2 0.0 2.1
19:48 6.1 5.1 93 1018.0 14.5 NW 14.5 0.0 2.1
19:49 6.1 5.1 93 1018.0 9.8 W 14.5 0.0 2.1
19:51 6.1 5.1 93 1018.0 6.9 NW 14.5 0.0 2.1
19:52 6.1 5.1 93 1018.0 11.4 W 14.5 0.0 2.1
19:56 6.2 5.2 93 1018.0 13.6 N 14.5 0.0 2.1
20:00 6.4 5.4 93 1018.0 9.8 W 13.6 0.0 2.1
20:03 6.4 5.4 93 1018.0 9.8 W 13.6 0.0 2.1
20:10 6.3 5.1 92 1018.0 10.7 W 16.8 0.0 2.1
20:13 6.3 5.1 92 1018.0 6.9 W 16.8 0.0 2.1
18:32 7.4 4.9 84 1017.9 6.9 W 13.6 0.0 2.0
18:35 7.3 4.8 84 1017.9 9.2 W 13.0 0.0 2.0
18:36 7.3 4.8 84 1017.9 7.6 W 13.0 0.0 2.0
18:39 7.3 4.8 84 1017.9 12.1 NW 15.2 0.0 2.0
18:41 7.4 4.9 84 1017.9 15.2 N 15.2 0.0 2.0
18:45 7.4 5.0 85 1017.9 19.0 NE 19.0 0.0 2.0
18:48 7.5 5.3 86 1017.9 14.5 WNW 19.7 0.0 2.0
18:51 7.5 5.3 86 1017.9 11.4 NW 19.7 0.0 2.0
18:53 7.4 5.2 86 1017.9 9.8 N 19.7 0.0 2.0
18:56 7.4 5.2 86 1017.9 15.2 S 19.7 0.0 2.0
19:00 7.3 5.1 86 1017.9 12.1 SW 15.9 0.0 2.0
19:04 7.3 5.1 86 1017.9 12.1 SW 15.2 0.0 2.0
19:38 6.1 4.9 92 1017.9 5.4 W 9.8 0.0 2.1
19:40 6.1 4.9 92 1017.9 6.0 W 9.8 0.0 2.1
18:29 7.4 4.9 84 1017.8 10.7 W 15.2 0.0 2.0
18:34 7.3 4.8 84 1017.8 9.8 SW 13.0 0.0 2.0
18:40 7.3 4.8 84 1017.8 13.0 NW 15.2 0.0 2.0
18:50 7.5 5.3 86 1017.8 13.0 NW 19.7 0.0 2.0
18:52 7.5 5.3 86 1017.8 15.9 W 19.7 0.0 2.0
18:57 7.4 5.2 86 1017.8 14.5 NW 17.4 0.0 2.0
18:58 7.3 5.1 86 1017.8 13.0 W 15.9 0.0 2.0
18:59 7.3 5.1 86 1017.8 12.1 SW 15.9 0.0 2.0
19:01 7.3 5.1 86 1017.8 12.1 SW 15.9 0.0 2.0
19:03 7.3 5.1 86 1017.8 12.1 SW 15.2 0.0 2.0
19:05 7.3 5.1 86 1017.8 12.1 SW 15.2 0.0 2.0
19:29 6.3 4.9 91 1017.8 7.6 W 11.4 0.0 2.1
18:17 7.4 4.9 84 1017.7 10.7 NW 14.5 0.0 2.0
18:18 7.4 4.9 84 1017.7 12.1 SW 13.0 0.0 2.0
18:23 7.4 4.9 84 1017.7 11.4 NW 15.2 0.0 2.0
18:25 7.4 4.9 84 1017.7 12.1 W 15.2 0.0 2.0
18:28 7.4 4.9 84 1017.7 7.6 NW 15.2 0.0 2.0
18:31 7.3 4.8 84 1017.7 9.8 NW 15.2 0.0 2.0
18:44 7.4 5.0 85 1017.7 16.8 W 16.8 0.0 2.0
18:00 7.6 5.1 84 1017.6 16.8 SW 17.4 0.0 2.0
18:03 7.6 5.1 84 1017.6 16.8 SW 17.4 0.0 2.0
18:04 7.6 5.1 84 1017.6 16.8 SW 16.8 0.0 2.0
18:05 7.6 5.1 84 1017.6 16.8 SW 16.8 0.0 2.0
18:07 7.5 5.0 84 1017.6 14.5 SW 16.8 0.0 2.0
18:14 7.4 4.9 84 1017.6 12.1 W 16.8 0.0 2.0
18:15 7.4 4.9 84 1017.6 6.9 W 14.5 0.0 2.0
18:16 7.4 4.9 84 1017.6 8.3 W 14.5 0.0 2.0
18:20 7.4 4.9 84 1017.6 10.7 NW 13.0 0.0 2.0
18:21 7.3 4.8 84 1017.6 12.1 SW 14.5 0.0 2.0
18:22 7.4 4.9 84 1017.6 15.2 SW 15.2 0.0 2.0
18:24 7.4 4.9 84 1017.6 13.0 NW 15.2 0.0 2.0
18:26 7.4 4.9 84 1017.6 9.2 W 15.2 0.0 2.0
17:44 7.8 5.6 86 1017.5 13.6 W 22.8 0.0 2.0
17:45 7.8 5.6 86 1017.5 13.6 W 23.5 0.0 2.0
17:50 7.8 5.4 85 1017.5 13.0 NW 23.5 0.0 2.0
17:52 7.7 5.2 84 1017.5 14.5 W 23.5 0.0 2.0
17:55 7.7 5.2 84 1017.5 9.8 NNW 20.6 0.0 2.0
18:01 7.6 5.1 84 1017.5 16.8 SW 17.4 0.0 2.0
18:02 7.6 5.1 84 1017.5 16.8 SW 17.4 0.0 2.0
18:10 7.5 5.0 84 1017.5 9.8 SW 16.8 0.0 2.0
18:12 7.4 4.9 84 1017.5 9.8 W 16.8 0.0 2.0
17:35 7.7 5.7 87 1017.4 13.6 SW 18.3 0.0 2.0
17:39 7.8 5.8 87 1017.4 16.8 N 19.7 0.0 2.0
17:43 7.8 5.6 86 1017.4 12.1 S 22.8 0.0 2.0
17:46 7.8 5.4 85 1017.4 19.0 NW 23.5 0.0 2.0
17:47 7.8 5.4 85 1017.4 18.3 W 23.5 0.0 2.0
17:53 7.7 5.2 84 1017.4 10.7 W 23.5 0.0 2.0
17:54 7.7 5.2 84 1017.4 12.1 NW 20.6 0.0 2.0
17:56 7.6 5.1 84 1017.4 10.7 W 20.6 0.0 2.0
17:58 7.6 5.1 84 1017.4 13.0 NW 17.4 0.0 2.0
17:59 7.6 5.1 84 1017.4 11.4 W 17.4 0.0 2.0
18:09 7.5 5.0 84 1017.4 12.1 NW 16.8 0.0 2.0
17:27 7.7 5.7 87 1017.3 18.3 SW 20.6 0.0 2.0
17:29 7.7 5.7 87 1017.3 9.8 NW 20.6 0.0 2.0
17:30 7.7 5.7 87 1017.3 15.9 W 20.6 0.0 2.0
17:31 7.7 5.7 87 1017.3 15.2 W 20.6 0.0 2.0
17:36 7.7 5.7 87 1017.3 15.9 W 18.3 0.0 2.0
17:37 7.8 5.8 87 1017.3 17.4 NW 19.7 0.0 2.0
17:38 7.8 5.8 87 1017.3 13.0 N 19.7 0.0 2.0
17:48 7.8 5.4 85 1017.3 13.6 NW 23.5 0.0 2.0
17:51 7.8 5.3 84 1017.3 15.2 NW 23.5 0.0 2.0
17:15 7.7 5.7 87 1017.2 19.0 NW 19.7 0.0 2.0
17:17 7.7 5.7 87 1017.2 13.6 W 19.7 0.0 2.0
17:19 7.7 5.7 87 1017.2 18.3 W 19.7 0.0 2.0
17:21 7.7 5.7 87 1017.2 14.5 WSW 19.7 0.0 2.0
17:23 7.7 5.7 87 1017.2 20.6 W 20.6 0.0 2.0
17:24 7.7 5.7 87 1017.2 16.8 W 20.6 0.0 2.0
17:28 7.7 5.7 87 1017.2 17.4 NW 20.6 0.0 2.0
17:32 7.7 5.7 87 1017.2 17.4 SW 20.6 0.0 2.0
17:33 7.7 5.7 87 1017.2 13.6 W 20.6 0.0 2.0
17:41 7.8 5.8 87 1017.2 22.8 W 22.8 0.0 2.0
17:42 7.9 5.9 87 1017.2 18.3 W 22.8 0.0 2.0
17:13 7.7 5.7 87 1017.1 19.7 N 19.7 0.0 2.0
17:14 7.7 5.7 87 1017.1 13.6 W 19.7 0.0 2.0
17:16 7.7 5.8 88 1017.1 13.6 NW 19.7 0.0 2.0
17:22 7.7 5.7 87 1017.1 6.9 NW 19.7 0.0 2.0
17:26 7.7 5.7 87 1017.1 18.3 W 20.6 0.0 2.0
17:20 7.7 5.7 87 1017.0 19.0 W 19.7 0.0 2.0
16:23 8.2 6.8 91 1016.9 15.2 W 17.4 0.0 2.0
16:26 8.2 6.8 91 1016.9 16.8 W 24.4 0.0 2.0
17:06 7.6 5.6 87 1016.9 15.9 W 15.9 0.0 2.0
16:57 7.7 5.8 88 1016.8 13.6 NW 19.7 0.0 2.0
17:07 7.6 5.6 87 1016.8 13.6 W 15.9 0.0 2.0
17:09 7.6 5.6 87 1016.8 17.4 W 17.4 0.0 2.0
17:12 7.6 5.6 87 1016.8 9.2 NW 18.3 0.0 2.0
16:17 8.3 7.1 92 1016.7 15.9 NW 17.4 0.0 2.0
16:21 8.2 6.8 91 1016.7 16.8 NW 17.4 0.0 2.0
16:22 8.2 6.8 91 1016.7 13.0 W 17.4 0.0 2.0
16:24 8.2 6.8 91 1016.7 16.8 W 17.4 0.0 2.0
16:25 8.2 6.8 91 1016.7 24.4 N 24.4 0.0 2.0
16:27 8.2 6.8 91 1016.7 20.6 SW 24.4 0.0 2.0
16:28 8.2 6.7 90 1016.7 19.0 WNW 24.4 0.0 2.0
17:08 7.6 5.6 87 1016.7 12.1 NW 15.9 0.0 2.0
17:10 7.6 5.6 87 1016.7 14.5 S 17.4 0.0 2.0
17:11 7.6 5.6 87 1016.7 18.3 NW 18.3 0.0 2.0
16:14 8.2 7.0 92 1016.6 14.5 W 17.4 0.0 2.0
16:18 8.3 6.9 91 1016.6 13.0 SW 17.4 0.0 2.0
16:19 8.3 6.9 91 1016.6 13.0 SW 17.4 0.0 2.0
16:20 8.3 6.9 91 1016.6 13.0 NW 17.4 0.0 2.0
16:29 8.2 6.7 90 1016.6 12.1 SW 24.4 0.0 2.0
16:31 8.2 6.7 90 1016.6 13.6 N 24.4 0.0 2.0
16:15 8.3 7.1 92 1016.5 17.4 NW 17.4 0.0 2.0
15:51 8.3 6.8 90 1016.4 9.2 N 17.4 0.0 2.0
16:09 8.2 7.0 92 1016.4 17.4 SW 17.4 0.0 2.0
16:13 8.2 7.0 92 1016.4 11.4 NW 17.4 0.0 2.0
16:13 8.2 7.0 92 1016.4 11.4 NW 17.4 0.0 2.0
16:30 8.2 6.7 90 1016.4 9.8 NW 24.4 0.0 2.0
16:32 8.2 6.7 90 1016.4 14.5 NW 24.4 0.0 2.0
16:32 8.2 6.7 90 1016.4 14.5 NW 24.4 0.0 2.0
16:32 8.2 6.7 90 1016.4 14.5 NW 24.4 0.0 2.0
16:32 8.2 6.7 90 1016.4 14.5 NW 24.4 0.0 2.0
16:32 8.2 6.7 90 1016.4 14.5 NW 24.4 0.0 2.0
16:32 8.2 6.7 90 1016.4 14.5 NW 24.4 0.0 2.0
16:32 8.2 6.7 90 1016.4 14.5 NW 24.4 0.0 2.0
16:32 8.2 6.7 90 1016.4 14.5 NW 24.4 0.0 2.0
16:32 8.2 6.7 90 1016.4 14.5 NW 24.4 0.0 2.0
16:32 8.2 6.7 90 1016.4 14.5 NW 24.4 0.0 2.0
16:32 8.2 6.7 90 1016.4 14.5 NW 24.4 0.0 2.0
16:32 8.2 6.7 90 1016.4 14.5 NW 24.4 0.0 2.0
16:32 8.2 6.7 90 1016.4 14.5 NW 24.4 0.0 2.0
16:32 8.2 6.7 90 1016.4 14.5 NW 24.4 0.0 2.0
16:32 8.2 6.7 90 1016.4 14.5 NW 24.4 0.0 2.0
16:32 8.2 6.7 90 1016.4 14.5 NW 24.4 0.0 2.0
16:32 8.2 6.7 90 1016.4 14.5 NW 24.4 0.0 2.0
16:32 8.2 6.7 90 1016.4 14.5 NW 24.4 0.0 2.0
16:32 8.2 6.7 90 1016.4 14.5 NW 24.4 0.0 2.0
16:32 8.2 6.7 90 1016.4 14.5 NW 24.4 0.0 2.0
16:32 8.2 6.7 90 1016.4 14.5 NW 24.4 0.0 2.0
16:32 8.2 6.7 90 1016.4 14.5 NW 24.4 0.0 2.0
16:32 8.2 6.7 90 1016.4 14.5 NW 24.4 0.0 2.0
15:52 8.3 6.8 90 1016.3 18.3 NW 18.3 0.0 2.0
16:02 8.3 6.9 91 1016.3 13.6 NW 18.3 0.0 2.0
16:04 8.3 6.9 91 1016.3 13.6 NW 16.8 0.0 2.0
16:11 8.2 7.0 92 1016.3 13.6 NW 17.4 0.0 2.0
15:47 8.3 6.8 90 1016.2 12.1 NW 20.6 0.0 2.0
15:50 8.3 6.8 90 1016.2 9.8 SW 20.6 0.0 2.0
15:53 8.3 6.9 91 1016.2 11.4 SW 18.3 0.0 2.0
15:53 8.3 6.9 91 1016.2 11.4 SW 18.3 0.0 2.0
15:54 8.3 6.9 91 1016.2 15.2 W 18.3 0.0 2.0
15:58 8.3 6.9 91 1016.2 11.4 W 18.3 0.0 2.0
15:59 8.3 6.9 91 1016.2 11.4 W 18.3 0.0 2.0
16:00 8.3 6.9 91 1016.2 13.6 NW 18.3 0.0 2.0
16:01 8.3 6.9 91 1016.2 13.6 NW 18.3 0.0 2.0
16:03 8.3 6.9 91 1016.2 13.6 NW 16.8 0.0 2.0
16:05 8.2 6.8 91 1016.2 11.4 NW 16.8 0.0 2.0
16:07 8.2 7.0 92 1016.2 13.6 W 14.5 0.0 2.0
16:07 8.2 7.0 92 1016.2 13.6 W 14.5 0.0 2.0
16:10 8.3 7.1 92 1016.2 12.1 W 17.4 0.0 2.0
16:10 8.3 7.1 92 1016.2 12.1 W 17.4 0.0 2.0
15:32 8.4 7.0 91 1016.1 10.7 NW 18.3 0.0 2.0
15:34 8.4 7.0 91 1016.1 13.0 NW 18.3 0.0 2.0
15:45 8.3 6.8 90 1016.1 15.9 NW 20.6 0.0 2.0
15:46 8.3 6.8 90 1016.1 13.6 N 20.6 0.0 2.0
15:48 8.3 6.8 90 1016.1 10.7 NW 20.6 0.0 2.0
15:48 8.3 6.8 90 1016.1 10.7 NW 20.6 0.0 2.0
16:06 8.2 7.0 92 1016.1 13.0 NE 16.8 0.0 2.0
15:29 8.4 7.0 91 1016.0 12.1 W 21.3 0.0 2.0
15:31 8.4 7.0 91 1016.0 9.8 NW 21.3 0.0 2.0
15:36 8.4 7.0 91 1016.0 15.9 NW 16.8 0.0 2.0
15:39 8.3 6.9 91 1016.0 13.0 NW 17.4 0.0 2.0
15:43 8.3 6.8 90 1016.0 16.8 W 20.6 0.0 2.0
15:44 8.3 6.8 90 1016.0 13.6 NW 20.6 0.0 2.0
15:55 8.3 6.9 91 1016.0 9.8 NW 18.3 0.0 2.0
15:57 8.2 6.8 91 1016.0 8.3 W 18.3 0.0 2.0
15:18 8.4 7.2 92 1015.9 15.9 W 15.9 0.0 2.0
15:27 8.4 7.0 91 1015.9 13.0 W 21.3 0.0 2.0
15:28 8.4 7.0 91 1015.9 8.3 NW 21.3 0.0 2.0
15:30 8.4 7.0 91 1015.9 12.1 NW 21.3 0.0 2.0
15:35 8.4 7.0 91 1015.9 14.5 W 16.8 0.0 2.0
15:37 8.3 6.9 91 1015.9 17.4 W 17.4 0.0 2.0
15:38 8.4 7.0 91 1015.9 14.5 W 17.4 0.0 2.0
15:40 8.3 6.9 91 1015.9 20.6 W 20.6 0.0 2.0
15:40 8.3 6.9 91 1015.9 20.6 W 20.6 0.0 2.0
15:41 8.3 6.8 90 1015.9 17.4 NW 20.6 0.0 2.0
15:09 8.5 7.3 92 1015.8 9.2 W 15.9 0.0 2.0
15:09 8.5 7.3 92 1015.8 9.2 W 15.9 0.0 2.0
15:15 8.5 7.3 92 1015.8 9.8 W 15.9 0.0 2.0
15:16 8.5 7.3 92 1015.8 14.5 N 15.9 0.0 2.0
15:21 8.4 7.2 92 1015.8 15.2 N 15.9 0.0 2.0
15:22 8.4 7.2 92 1015.8 17.4 SW 21.3 0.0 2.0
15:24 8.4 7.2 92 1015.8 18.3 W 21.3 0.0 2.0
15:25 8.4 7.0 91 1015.8 16.8 W 21.3 0.0 2.0
15:26 8.4 7.0 91 1015.8 16.8 WNW 21.3 0.0 2.0
15:08 8.5 7.3 92 1015.7 11.4 W 15.9 0.0 2.0
15:11 8.5 7.3 92 1015.7 15.9 SW 15.9 0.0 2.0
15:12 8.5 7.3 92 1015.7 9.2 W 15.9 0.0 2.0
15:14 8.5 7.3 92 1015.7 13.0 W 15.9 0.0 2.0
15:19 8.4 7.2 92 1015.7 6.0 S 15.9 0.0 2.0
15:23 8.4 7.2 92 1015.7 10.7 W 21.3 0.0 2.0
15:04 8.5 7.3 92 1015.6 13.6 NW 15.9 0.0 2.0
15:06 8.5 7.3 92 1015.6 13.6 NW 15.9 0.0 2.0
15:06 8.5 7.3 92 1015.6 13.6 NW 15.9 0.0 2.0
15:17 8.5 7.3 92 1015.6 11.4 NW 15.9 0.0 2.0
15:02 8.5 7.3 92 1015.5 15.9 NW 17.4 0.0 2.0
15:05 8.5 7.3 92 1015.5 12.1 NW 15.9 0.0 2.0
15:20 8.5 7.3 92 1015.5 15.9 W 15.9 0.0 2.0
14:47 8.7 7.3 91 1015.4 7.6 W 17.4 0.0 2.0
14:51 8.7 7.3 91 1015.4 10.7 NW 15.2 0.0 2.0
14:57 8.6 7.4 92 1015.4 11.4 SW 17.4 0.0 2.0
15:03 8.5 7.3 92 1015.4 13.0 W 16.8 0.0 2.0
14:50 8.6 7.2 91 1015.3 13.0 NW 15.2 0.0 2.0
14:52 8.6 7.4 92 1015.3 15.2 W 17.4 0.0 2.0
14:59 8.6 7.4 92 1015.3 12.1 W 17.4 0.0 2.0
15:01 8.6 7.4 92 1015.3 15.2 W 17.4 0.0 2.0
14:44 8.7 7.3 91 1015.2 10.7 WNW 17.4 0.0 2.0
14:45 8.7 7.3 91 1015.2 15.2 NW 17.4 0.0 2.0
14:46 8.7 7.3 91 1015.2 13.6 NW 17.4 0.0 2.0
14:48 8.7 7.3 91 1015.2 15.2 W 15.2 0.0 2.0
14:49 8.7 7.3 91 1015.2 15.2 W 15.2 0.0 2.0
14:49 8.7 7.3 91 1015.2 15.2 W 15.2 0.0 2.0
14:53 8.6 7.4 92 1015.2 16.8 NW 17.4 0.0 2.0
14:55 8.6 7.4 92 1015.2 11.4 NW 17.4 0.0 2.0
14:56 8.6 7.4 92 1015.2 13.6 SW 17.4 0.0 2.0
14:58 8.6 7.4 92 1015.2 10.7 NW 17.4 0.0 2.0
15:00 8.6 7.4 92 1015.2 15.2 W 17.4 0.0 2.0
14:35 8.9 7.5 91 1015.1 14.5 W 16.8 0.0 2.0
14:36 8.9 7.5 91 1015.1 12.1 S 16.8 0.0 2.0
14:37 8.9 7.5 91 1015.1 17.4 W 17.4 0.0 2.0
14:38 8.8 7.4 91 1015.1 12.1 NW 17.4 0.0 2.0
14:39 8.8 7.4 91 1015.1 9.8 W 17.4 0.0 2.0
14:40 8.8 7.4 91 1015.1 11.4 W 17.4 0.0 2.0
14:41 8.8 7.4 91 1015.1 11.4 NW 17.4 0.0 2.0
14:42 8.8 7.4 91 1015.1 13.0 W 17.4 0.0 2.0
14:43 8.8 7.4 91 1015.1 10.7 NW 17.4 0.0 2.0
14:26 9.0 7.8 92 1015.0 13.6 W 17.4 0.0 2.0
14:27 9.0 7.6 91 1015.0 9.8 W 17.4 0.0 2.0
14:28 9.0 7.6 91 1015.0 9.8 NW 17.4 0.0 2.0
14:29 9.0 7.6 91 1015.0 11.4 NW 17.4 0.0 2.0
14:30 9.0 7.6 91 1015.0 12.1 NW 17.4 0.0 2.0
14:32 9.0 7.6 91 1015.0 13.0 W 15.2 0.0 2.0
14:33 8.9 7.5 91 1015.0 9.8 NW 15.2 0.0 2.0
14:20 9.1 7.9 92 1014.9 17.4 NW 19.7 0.0 2.0
14:22 9.0 7.8 92 1014.9 9.2 SW 19.7 0.0 2.0
14:23 9.0 7.8 92 1014.9 12.1 W 19.7 0.0 2.0
14:24 9.0 7.8 92 1014.9 13.6 S 19.7 0.0 2.0
14:25 9.0 7.8 92 1014.9 15.2 W 19.7 0.0 2.0
14:31 9.0 7.6 91 1014.9 10.7 W 15.2 0.0 2.0
14:34 8.9 7.5 91 1014.9 9.2 SW 15.2 0.0 2.0
14:21 9.1 7.9 92 1014.8 12.1 W 19.7 0.0 2.0
14:17 9.1 7.9 92 1014.7 12.1 W 19.7 0.0 2.0
14:17 9.1 7.9 92 1014.7 12.1 W 19.7 0.0 2.0
14:19 9.1 7.9 92 1014.7 12.1 W 19.7 0.0 2.0
12:37 8.3 8.2 99 1014.6 17.4 NW 17.4 0.0 2.0
12:41 8.3 8.2 99 1014.6 15.2 W 17.4 0.0 2.0
12:48 8.5 8.4 99 1014.6 11.4 NW 19.0 0.0 2.0
12:49 8.5 8.4 99 1014.6 15.9 NW 19.0 0.0 2.0
12:50 8.5 8.4 99 1014.6 12.1 NW 19.0 0.0 2.0
12:56 8.6 8.5 99 1014.6 12.1 W 18.3 0.0 2.0
12:57 8.6 8.5 99 1014.6 13.6 W 18.3 0.0 2.0
13:02 8.7 8.6 99 1014.6 17.4 NW 19.0 0.0 2.0
13:06 8.6 8.5 99 1014.6 13.6 W 19.0 0.0 2.0
13:06 8.6 8.5 99 1014.6 13.6 W 19.0 0.0 2.0
13:13 8.5 8.4 99 1014.6 14.5 W 17.4 0.0 2.0
13:14 8.5 8.4 99 1014.6 12.1 W 17.4 0.0 2.0
13:14 8.5 8.4 99 1014.6 12.1 W 17.4 0.0 2.0
13:16 8.5 8.4 99 1014.6 12.1 NW 17.4 0.0 2.0
13:21 8.4 8.3 99 1014.6 15.9 NW 15.9 0.0 2.0
13:24 8.5 8.4 99 1014.6 19.7 W 19.7 0.0 2.0
13:26 8.4 8.3 99 1014.6 19.7 W 19.7 0.0 2.0
13:26 8.4 8.3 99 1014.6 19.7 W 19.7 0.0 2.0
14:16 9.2 8.0 92 1014.6 11.4 NW 19.7 0.0 2.0
11:54 8.2 8.1 99 1014.5 13.0 NW 18.3 0.0 2.0
11:54 8.2 8.1 99 1014.5 13.0 NW 18.3 0.0 2.0
12:13 8.2 8.1 99 1014.5 15.2 SW 22.1 0.0 2.0
12:25 8.3 8.2 99 1014.5 16.8 W 21.3 0.0 2.0
12:25 8.3 8.2 99 1014.5 16.8 W 21.3 0.0 2.0
12:27 8.3 8.2 99 1014.5 9.2 W 20.6 0.0 2.0
12:27 8.3 8.2 99 1014.5 9.2 W 20.6 0.0 2.0
12:27 8.3 8.2 99 1014.5 9.2 W 20.6 0.0 2.0
12:32 8.4 8.3 99 1014.5 10.7 NW 20.6 0.0 2.0
12:51 8.5 8.4 99 1014.5 16.8 W 19.0 0.0 2.0
12:53 8.6 8.5 99 1014.5 17.4 NW 19.0 0.0 2.0
12:55 8.6 8.5 99 1014.5 16.8 W 19.0 0.0 2.0
12:59 8.6 8.5 99 1014.5 12.1 W 17.4 0.0 2.0
13:00 8.7 8.6 99 1014.5 12.1 NW 19.0 0.0 2.0
13:01 8.7 8.6 99 1014.5 12.1 NW 19.0 0.0 2.0
13:03 8.7 8.6 99 1014.5 11.4 NW 19.0 0.0 2.0
13:05 8.6 8.5 99 1014.5 9.2 NW 19.0 0.0 2.0
13:08 8.6 8.5 99 1014.5 13.6 SW 19.0 0.0 2.0
13:09 8.6 8.5 99 1014.5 17.4 W 17.4 0.0 2.0
13:09 8.6 8.5 99 1014.5 17.4 W 17.4 0.0 2.0
13:11 8.6 8.5 99 1014.5 17.4 NW 17.4 0.0 2.0
13:12 8.6 8.5 99 1014.5 15.2 W 17.4 0.0 2.0
13:17 8.5 8.4 99 1014.5 14.5 NW 17.4 0.0 2.0
13:18 8.4 8.3 99 1014.5 15.2 NW 17.4 0.0 2.0
13:19 8.5 8.4 99 1014.5 15.9 W 17.4 0.0 2.0
13:20 8.4 8.3 99 1014.5 14.5 NW 17.4 0.0 2.0
11:49 8.2 8.1 99 1014.4 14.5 W 22.1 0.0 2.0
11:56 8.2 8.1 99 1014.4 12.1 NW 18.3 0.0 2.0
12:05 8.2 8.1 99 1014.4 13.6 W 18.3 0.0 2.0
12:05 8.2 8.1 99 1014.4 13.6 W 18.3 0.0 2.0
12:08 8.2 8.1 99 1014.4 16.8 W 20.6 0.0 2.0
12:08 8.2 8.1 99 1014.4 16.8 W 20.6 0.0 2.0
12:14 8.3 8.2 99 1014.4 11.4 W 22.1 0.0 2.0
12:14 8.3 8.2 99 1014.4 11.4 W 22.1 0.0 2.0
12:16 8.3 8.2 99 1014.4 17.4 W 22.1 0.0 2.0
12:17 8.3 8.2 99 1014.4 21.3 NW 22.1 0.0 2.0
12:19 8.2 8.1 99 1014.4 15.2 NW 22.1 0.0 2.0
12:23 8.3 8.2 99 1014.4 15.9 NW 21.3 0.0 2.0
12:24 8.3 8.2 99 1014.4 13.6 W 21.3 0.0 2.0
12:30 8.4 8.3 99 1014.4 15.2 W 20.6 0.0 2.0
12:31 8.4 8.3 99 1014.4 14.5 W 20.6 0.0 2.0
12:33 8.3 8.2 99 1014.4 12.1 W 18.3 0.0 2.0
12:34 8.4 8.3 99 1014.4 13.6 W 18.3 0.0 2.0
12:35 8.3 8.2 99 1014.4 13.6 NW 18.3 0.0 2.0
12:38 8.3 8.2 99 1014.4 13.6 NW 17.4 0.0 2.0
12:39 8.3 8.2 99 1014.4 14.5 NW 17.4 0.0 2.0
12:39 8.3 8.2 99 1014.4 14.5 NW 17.4 0.0 2.0
12:40 8.3 8.2 99 1014.4 9.8 SW 17.4 0.0 2.0
12:42 8.3 8.2 99 1014.4 14.5 NW 17.4 0.0 2.0
12:44 8.4 8.3 99 1014.4 16.8 SW 17.4 0.0 2.0
12:45 8.4 8.3 99 1014.4 19.0 NW 19.0 0.0 2.0
12:47 8.4 8.3 99 1014.4 17.4 NW 19.0 0.0 2.0
12:58 8.6 8.5 99 1014.4 14.5 N 17.4 0.0 2.0
13:22 8.5 8.4 99 1014.4 19.0 N 19.0 0.0 2.0
13:25 8.5 8.4 99 1014.4 16.8 W 19.7 0.0 2.0
13:30 8.5 8.4 99 1014.4 17.4 NW 19.7 0.0 2.0
14:14 9.1 7.9 92 1014.4 10.7 NW 13.0 0.0 2.0
11:38 8.1 8.0 99 1014.3 16.8 W 19.7 0.0 2.0
11:44 8.2 8.1 99 1014.3 15.9 N 22.1 0.0 2.0
11:46 8.2 8.1 99 1014.3 15.9 W 22.1 0.0 2.0
11:47 8.2 8.1 99 1014.3 13.0 W 22.1 0.0 2.0
11:48 8.2 8.1 99 1014.3 10.7 NW 22.1 0.0 2.0
11:50 8.2 8.1 99 1014.3 15.2 NW 22.1 0.0 2.0
11:50 8.2 8.1 99 1014.3 15.2 NW 22.1 0.0 2.0
11:50 8.2 8.1 99 1014.3 15.2 NW 22.1 0.0 2.0
11:50 8.2 8.1 99 1014.3 15.2 NW 22.1 0.0 2.0
11:58 8.2 8.1 99 1014.3 18.3 NW 18.3 0.0 2.0
11:58 8.2 8.1 99 1014.3 18.3 NW 18.3 0.0 2.0
12:00 8.2 8.1 99 1014.3 11.4 NW 18.3 0.0 2.0
12:01 8.2 8.1 99 1014.3 11.4 NW 18.3 0.0 2.0
12:02 8.2 8.1 99 1014.3 11.4 NW 18.3 0.0 2.0
12:02 8.2 8.1 99 1014.3 11.4 NW 18.3 0.0 2.0
12:07 8.2 8.1 99 1014.3 20.6 NW 20.6 0.0 2.0
12:18 8.2 8.1 99 1014.3 16.8 W 22.1 0.0 2.0
12:21 8.2 8.1 99 1014.3 15.2 NW 22.1 0.0 2.0
12:22 8.2 8.1 99 1014.3 16.8 NW 22.1 0.0 2.0
12:36 8.3 8.2 99 1014.3 14.5 NW 18.3 0.0 2.0
12:46 8.4 8.3 99 1014.3 16.8 NW 19.0 0.0 2.0
12:54 8.6 8.5 99 1014.3 14.5 W 19.0 0.0 2.0
13:04 8.7 8.6 99 1014.3 9.2 N 19.0 0.0 2.0
13:23 8.4 8.3 99 1014.3 18.3 NW 19.0 0.0 2.0
13:28 8.5 8.4 99 1014.3 15.2 W 19.7 0.0 2.0
13:31 8.5 8.4 99 1014.3 11.4 W 19.7 0.0 2.0
13:32 8.5 8.4 99 1014.3 13.6 W 20.6 0.0 2.0
13:34 8.5 8.4 99 1014.3 12.1 NW 20.6 0.0 2.0
14:13 9.1 7.9 92 1014.3 13.0 W 13.0 0.0 2.0
14:15 9.1 7.9 92 1014.3 19.7 W 19.7 0.0 2.0
11:33 8.2 8.1 99 1014.2 10.7 W 19.7 0.0 2.0
11:40 8.2 8.1 99 1014.2 14.5 WNW 19.7 0.0 2.0
11:42 8.2 8.1 99 1014.2 22.1 NE 22.1 0.0 2.0
11:45 8.2 8.1 99 1014.2 13.6 NW 22.1 0.0 2.0
11:57 8.3 8.2 99 1014.2 16.8 W 18.3 0.0 2.0
12:04 8.3 8.2 99 1014.2 9.8 SW 18.3 0.0 2.0
12:10 8.2 8.1 99 1014.2 19.0 W 20.6 0.0 2.0
12:10 8.2 8.1 99 1014.2 19.0 W 20.6 0.0 2.0
12:11 8.3 8.2 99 1014.2 15.9 NW 20.6 0.0 2.0
12:20 8.2 8.1 99 1014.2 14.5 NW 22.1 0.0 2.0
12:52 8.6 8.5 99 1014.2 17.4 NW 19.0 0.0 2.0
13:29 8.5 8.4 99 1014.2 15.2 SW 19.7 0.0 2.0
13:33 8.5 8.4 99 1014.2 13.0 NW 20.6 0.0 2.0
13:35 8.5 8.4 99 1014.2 8.3 W 20.6 0.0 2.0
13:36 8.6 8.3 98 1014.2 6.9 SW 20.6 0.0 2.0
13:36 8.6 8.3 98 1014.2 6.9 SW 20.6 0.0 2.0
13:37 8.6 8.3 98 1014.2 3.8 W 20.6 0.0 2.0
14:08 9.1 7.7 91 1014.2 13.0 W 13.0 0.0 2.0
14:08 9.1 7.7 91 1014.2 13.0 W 13.0 0.0 2.0
14:11 9.1 7.7 91 1014.2 10.7 W 13.0 0.0 2.0
14:11 9.1 7.7 91 1014.2 10.7 W 13.0 0.0 2.0
11:43 8.2 8.1 99 1014.1 17.4 SW 22.1 0.0 2.0
13:40 8.8 8.5 98 1014.1 5.4 W 20.6 0.0 2.0
13:41 8.8 8.5 98 1014.1 13.0 W 20.6 0.0 2.0
13:45 9.0 8.4 96 1014.1 12.1 NW 17.4 0.0 2.0
13:46 9.0 8.2 95 1014.1 10.7 NW 17.4 0.0 2.0
14:10 9.1 7.7 91 1014.1 10.7 W 13.0 0.0 2.0
11:15 8.1 8.0 99 1014.0 19.7 NW 28.9 0.0 2.0
11:15 8.1 8.0 99 1014.0 19.7 NW 28.9 0.0 2.0
11:15 8.1 8.0 99 1014.0 19.7 NW 28.9 0.0 2.0
11:24 8.1 8.0 99 1014.0 10.7 NW 19.7 0.0 2.0
11:29 8.1 8.0 99 1014.0 13.6 N 16.8 0.0 2.0
11:30 8.1 8.0 99 1014.0 15.2 N 16.8 0.0 2.0
11:32 8.1 8.0 99 1014.0 12.1 N 19.7 0.0 2.0
11:34 8.1 8.0 99 1014.0 13.6 NW 19.7 0.0 2.0
11:35 8.2 8.1 99 1014.0 15.9 NW 19.7 0.0 2.0
11:36 8.2 8.1 99 1014.0 15.9 W 19.7 0.0 2.0
11:37 8.1 8.0 99 1014.0 19.0 NW 19.7 0.0 2.0
13:39 8.7 8.4 98 1014.0 9.2 SW 20.6 0.0 2.0
13:42 8.9 8.5 97 1014.0 15.9 SW 15.9 0.0 2.0
13:43 8.9 8.3 96 1014.0 17.4 W 17.4 0.0 2.0
13:44 9.0 8.4 96 1014.0 15.2 W 17.4 0.0 2.0
13:48 9.0 8.2 95 1014.0 11.4 NNW 17.4 0.0 2.0
13:50 9.0 8.2 95 1014.0 9.8 N 17.4 0.0 2.0
13:55 9.0 8.1 94 1014.0 11.4 W 14.5 0.0 2.0
13:56 8.9 7.8 93 1014.0 10.7 NW 14.5 0.0 2.0
13:58 8.9 7.8 93 1014.0 13.0 W 14.5 0.0 2.0
14:07 9.1 7.7 91 1014.0 9.8 NW 13.0 0.0 2.0
00:03 11.7 11.6 99 1013.9 32.7 S 32.7 0.0 0.1
00:05 11.7 11.6 99 1013.9 26.6 S 32.7 0.8 0.1
00:05 11.7 11.6 99 1013.9 26.6 S 32.7 0.8 0.1
00:06 11.7 11.6 99 1013.9 25.9 S 32.7 0.8 0.1
11:18 8.1 8.0 99 1013.9 17.4 NW 28.9 0.0 2.0
11:18 8.1 8.0 99 1013.9 17.4 NW 28.9 0.0 2.0
11:20 8.1 8.0 99 1013.9 15.9 NW 19.7 0.0 2.0
11:20 8.1 8.0 99 1013.9 15.9 NW 19.7 0.0 2.0
11:22 8.1 8.0 99 1013.9 9.2 W 19.7 0.0 2.0
11:25 8.0 7.9 99 1013.9 13.6 W 19.7 0.0 2.0
11:26 8.0 7.9 99 1013.9 7.6 NW 19.7 0.0 2.0
11:31 8.1 8.0 99 1013.9 19.7 N 19.7 0.0 2.0
11:39 8.2 8.1 99 1013.9 17.4 W 19.7 0.0 2.0
13:51 9.0 8.2 95 1013.9 8.3 W 17.4 0.0 2.0
13:52 9.0 8.2 95 1013.9 12.1 NW 17.4 0.0 2.0
13:53 9.0 8.1 94 1013.9 11.4 NW 15.2 0.0 2.0
13:57 9.0 7.9 93 1013.9 8.3 N 14.5 0.0 2.0
13:59 9.0 7.8 92 1013.9 9.8 W 14.5 0.0 2.0
14:02 9.0 7.8 92 1013.9 9.2 W 14.5 0.0 2.0
14:03 9.0 7.8 92 1013.9 9.2 W 14.5 0.0 2.0
14:05 9.0 7.8 92 1013.9 9.2 W 13.0 0.0 2.0
14:06 9.0 7.8 92 1013.9 9.2 W 13.0 0.0 2.0
00:02 11.7 11.6 99 1013.8 24.4 S 30.4 0.0 0.0
00:02 11.7 11.6 99 1013.8 24.4 S 30.4 0.0 0.0
00:09 11.7 11.6 99 1013.8 21.3 S 32.7 0.0 0.1
11:01 8.1 8.0 99 1013.8 14.5 W 22.1 0.0 2.0
11:13 8.1 8.0 99 1013.8 19.7 NW 28.9 0.0 2.0
11:14 8.1 8.0 99 1013.8 19.0 W 28.9 0.0 2.0
11:23 8.1 8.0 99 1013.8 14.5 NW 19.7 0.0 2.0
11:28 8.1 8.0 99 1013.8 9.8 NW 17.4 0.0 2.0
11:41 8.2 8.1 99 1013.8 22.1 W 22.1 0.0 2.0
13:47 9.0 8.2 95 1013.8 6.9 W 17.4 0.0 2.0
13:49 9.0 8.2 95 1013.8 10.7 NW 17.4 0.0 2.0
14:00 9.0 7.8 92 1013.8 9.2 W 14.5 0.0 2.0
14:01 9.0 7.8 92 1013.8 9.2 W 14.5 0.0 2.0
00:17 11.7 11.6 99 1013.7 28.9 S 32.7 0.0 0.1
10:53 8.1 8.0 99 1013.7 15.2 NW 25.9 0.0 2.0
10:54 8.1 8.0 99 1013.7 19.7 N 25.9 0.0 2.0
10:56 8.2 8.1 99 1013.7 13.0 W 25.9 0.0 2.0
10:57 8.1 8.0 99 1013.7 17.4 NW 20.6 0.0 2.0
10:58 8.1 8.0 99 1013.7 18.3 NE 20.6 0.0 2.0
10:59 8.1 8.0 99 1013.7 13.6 WSW 20.6 0.0 2.0
11:02 8.1 8.0 99 1013.7 15.9 W 22.1 0.0 2.0
11:03 8.2 8.1 99 1013.7 11.4 W 22.1 0.0 2.0
11:05 8.2 8.1 99 1013.7 21.3 NW 22.1 0.0 2.0
11:07 8.1 8.0 99 1013.7 19.7 NW 22.1 0.0 2.0
11:07 8.1 8.0 99 1013.7 19.7 NW 22.1 0.0 2.0
11:09 8.2 8.1 99 1013.7 28.9 W 28.9 0.0 2.0
11:10 8.2 8.1 99 1013.7 15.2 N 28.9 0.0 2.0
11:10 8.2 8.1 99 1013.7 15.2 N 28.9 0.0 2.0
11:27 8.1 8.0 99 1013.7 11.4 NW 19.7 0.0 2.0
13:54 9.0 8.1 94 1013.7 14.5 NW 14.5 0.0 2.0
00:01 11.7 11.6 99 1013.6 30.4 S 30.4 0.0 0.0
00:11 11.7 11.6 99 1013.6 22.8 S 32.7 0.0 0.1
00:11 11.7 11.6 99 1013.6 22.8 S 32.7 0.0 0.1
00:14 11.7 11.6 99 1013.6 25.9 WSW 32.7 0.0 0.1
00:15 11.7 11.6 99 1013.6 27.3 S 32.7 0.0 0.1
00:16 11.7 11.6 99 1013.6 27.3 S 32.7 0.0 0.1
00:18 11.8 11.7 99 1013.6 22.1 S 28.9 0.0 0.1
10:47 8.2 8.1 99 1013.6 14.5 W 25.9 0.0 2.0
10:49 8.1 8.0 99 1013.6 13.6 NW 25.9 0.0 2.0
10:50 8.1 8.0 99 1013.6 13.6 NW 25.9 0.0 2.0
10:55 8.1 8.0 99 1013.6 13.6 W 25.9 0.0 2.0
11:00 8.1 8.0 99 1013.6 22.1 W 22.1 0.0 2.0
11:04 8.2 8.1 99 1013.6 17.4 W 22.1 0.0 2.0
11:04 8.2 8.1 99 1013.6 17.4 W 22.1 0.0 2.0
11:12 8.1 8.0 99 1013.6 15.9 WSW 28.9 0.0 2.0
00:08 11.7 11.6 99 1013.5 20.6 S 32.7 0.8 0.1
00:08 11.7 11.6 99 1013.5 20.6 S 32.7 0.8 0.1
00:12 11.7 11.6 99 1013.5 23.5 S 32.7 0.0 0.1
00:20 11.8 11.7 99 1013.5 22.8 E 28.9 0.0 0.1
00:21 11.8 11.7 99 1013.5 25.9 SE 28.9 0.0 0.1
10:42 8.3 8.2 99 1013.5 21.3 WSW 22.1 0.0 2.0
10:44 8.3 8.2 99 1013.5 16.8 WNW 22.1 0.0 2.0
10:46 8.2 8.1 99 1013.5 16.8 NW 21.3 0.0 2.0
10:48 8.2 8.1 99 1013.5 15.2 W 25.9 0.0 2.0
10:51 8.1 8.0 99 1013.5 13.6 N 25.9 0.0 2.0
10:52 8.1 8.0 99 1013.5 13.0 W 25.9 0.0 2.0
00:19 11.8 11.7 99 1013.4 23.5 S 28.9 0.0 0.1
00:22 11.8 11.7 99 1013.4 19.7 S 28.9 0.0 0.1
00:22 11.8 11.7 99 1013.4 19.7 S 28.9 0.0 0.1
00:23 11.8 11.7 99 1013.4 28.9 S 28.9 0.0 0.1
00:25 11.8 11.7 99 1013.4 25.9 NNE 28.9 0.0 0.1
00:28 11.8 11.7 99 1013.4 28.2 S 28.9 0.8 0.1
00:31 11.8 11.7 99 1013.4 24.4 S 28.9 1.5 0.3
10:37 8.3 8.2 99 1013.4 17.4 NW 22.1 0.0 2.0
10:40 8.3 8.2 99 1013.4 16.8 W 22.1 0.0 2.0
10:41 8.3 8.2 99 1013.4 20.6 W 22.1 0.0 2.0
10:43 8.3 8.2 99 1013.4 15.9 NW 22.1 0.0 2.0
10:45 8.3 8.2 99 1013.4 19.0 WNW 21.3 0.0 2.0
00:26 11.8 11.7 99 1013.3 23.5 S 28.9 0.8 0.1
00:27 11.8 11.7 99 1013.3 23.5 SE 28.9 0.8 0.1
00:30 11.8 11.7 99 1013.3 23.5 S 28.9 0.8 0.2
10:38 8.3 8.2 99 1013.3 14.5 NW 22.1 0.0 2.0
10:39 8.3 8.2 99 1013.3 13.0 NW 22.1 0.0 2.0
00:29 11.8 11.7 99 1013.2 28.9 WSW 28.9 0.8 0.1
00:32 11.8 11.7 99 1013.2 25.9 S 28.9 1.5 0.3
00:34 11.8 11.7 99 1013.2 21.3 SE 28.9 1.5 0.3
10:33 8.3 8.2 99 1013.2 13.6 WSW 21.3 0.0 2.0
10:35 8.3 8.2 99 1013.2 21.3 NW 22.1 0.0 2.0
10:36 8.3 8.2 99 1013.2 14.5 W 22.1 0.0 2.0
00:33 11.9 11.8 99 1013.1 20.6 W 28.9 1.5 0.3
00:36 11.9 11.8 99 1013.1 22.8 WNW 28.9 0.0 0.3
00:38 11.9 11.8 99 1013.1 18.3 NNW 28.9 0.0 0.3
10:30 8.4 8.3 99 1013.1 16.8 N 22.8 0.0 2.0
10:32 8.3 8.2 99 1013.1 14.5 W 22.8 0.0 2.0
10:34 8.3 8.2 99 1013.1 19.0 W 21.3 0.0 2.0
00:35 11.9 11.8 99 1013.0 21.3 WSW 28.9 1.5 0.3
10:28 8.4 8.3 99 1013.0 9.8 WSW 22.8 0.0 2.0
10:28 8.4 8.3 99 1013.0 9.8 WSW 22.8 0.0 2.0
10:31 8.3 8.2 99 1013.0 13.6 NW 22.8 0.0 2.0
00:37 11.9 11.8 99 1012.9 22.8 S 28.9 0.0 0.3
10:23 8.5 8.4 99 1012.9 15.9 NW 22.8 0.0 2.0
10:27 8.4 8.3 99 1012.9 15.9 NW 22.8 0.0 2.0
00:39 11.9 11.8 99 1012.8 19.7 S 25.9 0.0 0.3
00:39 11.9 11.8 99 1012.8 19.7 S 25.9 0.0 0.3
00:49 12.0 11.9 99 1012.8 20.6 SE 31.1 0.0 0.3
10:24 8.4 8.3 99 1012.8 13.6 W 22.8 0.0 2.0
10:25 8.4 8.3 99 1012.8 12.1 NW 22.8 0.0 2.0
00:41 11.9 11.8 99 1012.7 25.1 E 25.9 0.8 0.3
00:42 11.9 11.8 99 1012.7 25.1 S 25.9 0.8 0.3
00:43 11.9 11.8 99 1012.7 20.6 S 26.6 0.8 0.3
00:44 11.9 11.8 99 1012.7 28.2 SE 28.2 0.8 0.3
00:44 11.9 11.8 99 1012.7 28.2 SE 28.2 0.8 0.3
10:17 8.5 8.4 99 1012.7 13.6 W 21.3 0.0 2.0
10:19 8.5 8.4 99 1012.7 13.0 N 21.3 0.0 2.0
10:20 8.5 8.4 99 1012.7 15.9 W 21.3 0.0 2.0
10:26 8.4 8.3 99 1012.7 21.3 NE 22.8 0.0 2.0
00:46 11.9 11.8 99 1012.6 31.1 S 31.1 0.0 0.3
00:47 11.9 11.8 99 1012.6 26.6 S 31.1 0.0 0.3
00:50 12.0 11.9 99 1012.6 19.7 SE 31.1 0.0 0.3
00:51 11.9 11.8 99 1012.6 30.4 S 31.1 0.0 0.3
10:14 8.6 8.5 99 1012.6 21.3 W 21.3 0.0 2.0
10:16 8.6 8.5 99 1012.6 13.0 W 21.3 0.0 2.0
10:18 8.5 8.4 99 1012.6 20.6 NW 21.3 0.0 2.0
10:21 8.5 8.4 99 1012.6 22.8 W 22.8 0.0 2.0
10:22 8.5 8.4 99 1012.6 22.8 NW 22.8 0.0 2.0
00:45 11.9 11.8 99 1012.5 19.7 S 28.2 0.8 0.3
00:54 12.3 12.2 99 1012.5 22.8 WSW 31.1 0.0 0.4
00:54 12.3 12.2 99 1012.5 22.8 WSW 31.1 0.0 0.4
00:56 12.0 11.9 99 1012.5 26.6 S 31.1 0.8 0.4
00:57 12.0 11.9 99 1012.5 32.0 S 32.0 1.5 0.4
10:12 8.6 8.5 99 1012.5 19.7 NW 21.3 0.0 2.0
10:13 8.6 8.5 99 1012.5 15.2 NW 21.3 0.0 2.0
00:52 12.0 11.9 99 1012.4 27.3 WSW 31.1 0.0 0.3
01:01 12.0 11.9 99 1012.4 23.5 N 32.0 1.5 0.5
10:05 8.7 8.6 99 1012.4 15.2 NW 16.8 0.0 2.0
10:06 8.7 8.6 99 1012.4 12.1 N 16.8 0.0 2.0
10:07 8.7 8.6 99 1012.4 16.8 NW 16.8 0.0 2.0
10:07 8.7 8.6 99 1012.4 16.8 NW 16.8 0.0 2.0
10:09 8.7 8.6 99 1012.4 16.8 W 21.3 0.0 2.0
10:10 8.6 8.5 99 1012.4 11.4 NW 21.3 0.0 2.0
10:10 8.6 8.5 99 1012.4 11.4 NW 21.3 0.0 2.0
10:15 8.6 8.5 99 1012.4 15.2 W 21.3 0.0 2.0
00:53 12.0 11.9 99 1012.3 17.4 S 31.1 0.0 0.3
00:59 12.0 11.9 99 1012.3 27.3 WSW 32.0 1.5 0.4
01:00 12.0 11.9 99 1012.3 23.5 N 32.0 1.5 0.5
01:04 12.0 11.9 99 1012.3 21.3 S 32.0 0.8 0.5
01:04 12.0 11.9 99 1012.3 21.3 S 32.0 0.8 0.5
01:08 12.1 12.0 99 1012.3 22.1 S 29.8 0.0 0.5
10:02 8.7 8.6 99 1012.3 15.2 NW 16.8 0.0 2.0
10:04 8.7 8.6 99 1012.3 15.2 NW 16.8 0.0 2.0
00:58 12.0 11.9 99 1012.2 29.8 WSW 32.0 1.5 0.4
01:05 12.0 11.9 99 1012.2 23.5 SE 32.0 0.0 0.5
01:06 12.0 11.9 99 1012.2 27.3 NNW 32.0 0.0 0.5
01:11 12.0 11.9 99 1012.2 20.6 S 27.3 1.5 0.6
10:00 8.7 8.6 99 1012.2 15.2 NW 16.8 0.0 2.0
10:00 8.7 8.6 99 1012.2 15.2 NW 16.8 0.0 2.0
10:03 8.7 8.6 99 1012.2 15.2 NW 16.8 0.0 2.0
01:02 12.0 11.9 99 1012.1 24.4 S 32.0 0.8 0.5
01:02 12.0 11.9 99 1012.1 24.4 S 32.0 0.8 0.5
01:09 12.0 11.9 99 1012.1 19.0 S 27.3 0.0 0.5
01:10 12.0 11.9 99 1012.1 26.6 NNW 27.3 0.8 0.6
09:55 8.8 8.7 99 1012.1 16.8 N 25.9 0.0 2.0
09:59 8.7 8.6 99 1012.1 9.8 N 20.6 0.0 2.0
09:56 8.8 8.7 99 1012.0 9.2 W 25.9 0.0 2.0
09:57 8.8 8.7 99 1012.0 12.1 S 25.9 0.0 2.0
09:58 8.7 8.6 99 1012.0 16.8 W 20.6 0.0 2.0
01:12 12.1 12.0 99 1011.9 20.6 S 27.3 1.5 0.7
01:15 12.1 12.0 99 1011.9 33.6 S 33.6 2.3 0.8
01:18 12.1 12.0 99 1011.9 26.6 S 33.6 0.8 0.8
01:23 12.1 12.0 99 1011.9 28.2 S 33.6 1.5 0.9
09:52 8.8 8.7 99 1011.9 13.6 W 25.9 0.0 2.0
09:53 8.8 8.7 99 1011.9 12.1 W 25.9 0.0 2.0
01:13 12.1 12.0 99 1011.8 24.4 S 27.3 2.3 0.7
01:14 12.1 12.0 99 1011.8 26.6 W 27.3 2.3 0.8
01:14 12.1 12.0 99 1011.8 26.6 W 27.3 2.3 0.8
01:19 12.1 12.0 99 1011.8 22.8 SE 33.6 0.8 0.8
01:20 12.1 12.0 99 1011.8 26.6 SE 33.6 0.8 0.8
01:21 12.1 12.0 99 1011.8 21.3 S 33.6 0.8 0.8
09:46 9.0 8.9 99 1011.8 11.4 NW 19.7 0.0 2.0
09:47 9.0 8.9 99 1011.8 14.5 NW 19.7 0.0 2.0
09:50 8.9 8.8 99 1011.8 13.0 W 25.9 0.0 2.0
09:51 8.9 8.8 99 1011.8 12.1 NW 25.9 0.0 2.0
09:54 8.8 8.7 99 1011.8 16.8 W 25.9 0.0 2.0
01:16 12.1 12.0 99 1011.7 25.9 S 33.6 1.5 0.8
01:22 12.1 12.0 99 1011.7 25.1 S 33.6 0.8 0.8
01:25 12.1 12.0 99 1011.7 26.6 SE 33.6 0.8 0.9
01:26 12.1 12.0 99 1011.7 25.9 S 31.1 0.8 0.9
01:29 12.1 12.0 99 1011.7 29.8 S 31.1 1.5 1.0
01:37 12.2 12.1 99 1011.7 32.0 SE 32.0 0.8 1.1
09:45 9.0 8.9 99 1011.7 11.4 NW 19.7 0.0 2.0
09:48 8.9 8.8 99 1011.7 19.0 WSW 25.9 0.0 2.0
01:24 12.1 12.0 99 1011.6 31.1 S 33.6 1.5 0.9
01:27 12.1 12.0 99 1011.6 24.4 SE 31.1 0.8 0.9
01:30 12.2 12.1 99 1011.6 25.9 S 31.1 1.5 1.0
01:35 12.2 12.1 99 1011.6 19.7 SE 29.8 0.0 1.0
09:41 9.1 9.0 99 1011.6 9.2 WSW 18.3 0.0 2.0
09:43 9.1 9.0 99 1011.6 15.2 W 18.3 0.0 2.0
09:44 9.0 8.9 99 1011.6 19.7 NW 19.7 0.0 2.0
09:49 8.9 8.8 99 1011.6 20.6 W 25.9 0.0 2.0
01:31 12.2 12.1 99 1011.5 22.8 N 31.1 1.5 1.0
01:33 12.2 12.1 99 1011.5 22.8 S 31.1 0.8 1.0
01:34 12.2 12.1 99 1011.5 27.3 S 29.8 0.0 1.0
01:34 12.2 12.1 99 1011.5 27.3 S 29.8 0.0 1.0
01:36 12.2 12.1 99 1011.5 27.3 S 29.8 0.0 1.1
01:43 12.2 12.1 99 1011.5 28.2 S 32.0 1.5 1.3
01:28 12.1 12.0 99 1011.4 25.9 NNW 31.1 0.8 0.9
01:32 12.2 12.1 99 1011.4 20.6 SE 31.1 1.5 1.0
01:38 12.2 12.1 99 1011.4 25.1 WSW 32.0 1.5 1.1
01:39 12.2 12.1 99 1011.4 30.4 SE 32.0 1.5 1.2
01:40 12.2 12.1 99 1011.4 26.6 SE 32.0 2.3 1.3
01:42 12.2 12.1 99 1011.4 20.6 S 32.0 2.3 1.3
01:45 12.2 12.1 99 1011.4 26.6 S 32.0 0.8 1.3
01:49 12.2 12.1 99 1011.4 24.4 SE 30.4 0.0 1.3
09:38 9.1 9.0 99 1011.4 16.8 NE 19.0 0.0 2.0
09:42 9.1 9.0 99 1011.4 16.8 NW 18.3 0.0 2.0
01:44 12.2 12.1 99 1011.3 22.8 NE 32.0 1.5 1.3
01:46 12.2 12.1 99 1011.3 28.2 SE 32.0 0.0 1.3
01:50 12.2 12.1 99 1011.3 19.0 NNW 28.2 0.0 1.3
01:52 12.2 12.1 99 1011.3 19.0 S 28.2 0.0 1.3
01:54 12.2 12.1 99 1011.3 23.5 S 28.2 0.0 1.3
01:55 12.2 12.1 99 1011.3 18.3 S 28.2 0.0 1.3
09:37 9.2 9.1 99 1011.3 9.8 W 19.7 0.0 2.0
09:39 9.1 9.0 99 1011.3 12.1 N 18.3 0.0 2.0
09:40 9.1 9.0 99 1011.3 14.5 NW 18.3 0.0 2.0
01:47 12.2 12.1 99 1011.2 23.5 S 32.0 0.0 1.3
01:48 12.2 12.1 99 1011.2 23.5 S 30.4 0.0 1.3
01:51 12.2 12.1 99 1011.2 22.1 WSW 28.2 0.0 1.3
01:53 12.2 12.1 99 1011.2 25.9 S 28.2 0.0 1.3
01:56 12.2 12.1 99 1011.2 25.1 S 27.3 0.0 1.3
01:58 12.2 12.1 99 1011.2 26.6 S 27.3 0.0 1.3
01:58 12.2 12.1 99 1011.2 26.6 S 27.3 0.0 1.3
01:59 12.2 12.1 99 1011.2 27.3 S 31.1 0.0 1.3
02:01 12.2 12.1 99 1011.2 23.5 S 31.1 0.0 1.3
09:33 9.3 9.2 99 1011.2 15.2 NW 19.7 0.0 2.0
09:35 9.2 9.1 99 1011.2 18.3 W 19.7 0.0 2.0
01:57 12.2 12.1 99 1011.1 24.4 S 27.3 0.0 1.3
02:02 12.2 12.1 99 1011.1 28.2 WSW 31.1 0.0 1.3
02:06 12.3 12.2 99 1011.1 26.6 S 31.1 0.8 1.4
02:06 12.3 12.2 99 1011.1 26.6 S 31.1 0.8 1.4
02:08 12.3 12.2 99 1011.1 25.9 SE 31.1 1.5 1.4
02:14 12.3 12.2 99 1011.1 22.1 S 30.4 0.0 1.4
09:31 9.3 9.2 99 1011.1 13.6 WSW 19.7 0.0 2.0
09:34 9.2 9.1 99 1011.1 14.5 NW 19.7 0.0 2.0
09:36 9.2 9.1 99 1011.1 15.9 NW 19.7 0.0 2.0
02:00 12.2 12.1 99 1011.0 27.3 S 31.1 0.0 1.3
02:03 12.3 12.2 99 1011.0 28.9 S 31.1 0.0 1.3
02:04 12.3 12.2 99 1011.0 29.8 SE 31.1 0.8 1.3
02:10 12.3 12.2 99 1011.0 22.8 SE 30.4 0.8 1.4
02:11 12.3 12.2 99 1011.0 24.4 S 30.4 0.8 1.4
09:30 9.4 9.3 99 1011.0 15.9 W 22.1 0.0 2.0
02:07 12.3 12.2 99 1010.9 25.9 S 31.1 1.5 1.4
02:13 12.3 12.2 99 1010.9 29.8 S 30.4 0.0 1.4
02:17 12.3 12.2 99 1010.9 24.4 NNE 30.4 0.0 1.4
02:21 12.4 12.3 99 1010.9 27.3 SE 29.8 0.0 1.4
02:24 12.4 12.3 99 1010.9 31.1 SE 31.1 0.0 1.4
09:23 9.6 9.5 99 1010.9 14.5 W 23.5 0.0 2.0
09:25 9.5 9.4 99 1010.9 10.7 NW 22.1 0.0 2.0
09:28 9.5 9.4 99 1010.9 19.0 WNW 22.1 0.0 2.0
02:09 12.3 12.2 99 1010.8 30.4 SE 30.4 0.8 1.4
02:15 12.3 12.2 99 1010.8 26.6 S 30.4 0.0 1.4
02:18 12.4 12.3 99 1010.8 24.4 S 30.4 0.0 1.4
02:23 12.4 12.3 99 1010.8 24.4 S 29.8 0.0 1.4
09:24 9.5 9.4 99 1010.8 17.4 NW 22.1 0.0 2.0
09:26 9.5 9.4 99 1010.8 10.7 NW 22.1 0.0 2.0
09:26 9.5 9.4 99 1010.8 10.7 NW 22.1 0.0 2.0
09:29 9.4 9.3 99 1010.8 18.3 NW 22.1 0.0 2.0
02:16 12.3 12.2 99 1010.7 25.9 S 30.4 0.0 1.4
02:19 12.4 12.3 99 1010.7 19.0 S 30.4 0.0 1.4
02:20 12.3 12.2 99 1010.7 28.2 S 29.8 0.0 1.4
02:22 12.4 12.3 99 1010.7 27.3 WSW 29.8 0.0 1.4
02:25 12.4 12.3 99 1010.7 23.5 S 31.1 0.0 1.4
02:36 12.5 12.4 99 1010.7 23.5 S 33.6 0.0 1.4
09:22 9.6 9.5 99 1010.7 15.9 W 23.5 0.0 2.0
09:22 9.6 9.5 99 1010.7 15.9 W 23.5 0.0 2.0
02:27 12.4 12.3 99 1010.6 22.1 WSW 31.1 0.0 1.4
02:28 12.4 12.3 99 1010.6 26.6 S 31.1 0.0 1.4
02:29 12.4 12.3 99 1010.6 21.3 S 31.1 0.0 1.4
02:30 12.4 12.3 99 1010.6 18.3 S 31.1 0.0 1.4
02:32 12.5 12.4 99 1010.6 22.1 S 31.1 0.0 1.4
02:39 12.5 12.4 99 1010.6 26.6 S 33.6 0.0 1.4
02:26 12.4 12.3 99 1010.5 26.6 S 31.1 0.0 1.4
02:26 12.4 12.3 99 1010.5 26.6 S 31.1 0.0 1.4
02:31 12.5 12.4 99 1010.5 26.6 WSW 31.1 0.0 1.4
02:33 12.5 12.4 99 1010.5 22.1 S 31.1 0.0 1.4
02:35 12.5 12.4 99 1010.5 25.9 S 33.6 0.0 1.4
02:38 12.5 12.4 99 1010.5 22.1 SE 33.6 0.0 1.4
02:40 12.5 12.4 99 1010.5 23.5 S 33.6 0.0 1.4
02:42 12.6 12.5 99 1010.5 22.8 W 33.6 0.0 1.4
02:43 12.6 12.5 99 1010.5 22.8 S 33.6 0.0 1.4
02:46 12.6 12.5 99 1010.5 24.4 S 33.6 0.0 1.4
02:49 12.6 12.5 99 1010.5 25.9 S 33.6 0.0 1.4
09:18 9.8 9.7 99 1010.5 13.0 NW 23.5 0.0 2.0
09:19 9.7 9.6 99 1010.5 19.7 NW 23.5 0.0 2.0
02:37 12.5 12.4 99 1010.4 30.4 S 33.6 0.0 1.4
02:41 12.5 12.4 99 1010.4 26.6 S 33.6 0.0 1.4
02:44 12.6 12.5 99 1010.4 22.1 S 33.6 0.0 1.4
02:45 12.6 12.5 99 1010.4 25.9 S 33.6 0.0 1.4
02:47 12.6 12.5 99 1010.4 24.4 WSW 33.6 0.0 1.4
02:48 12.6 12.5 99 1010.4 25.9 S 33.6 0.0 1.4
02:48 12.6 12.5 99 1010.4 25.9 S 33.6 0.0 1.4
02:50 12.6 12.5 99 1010.4 19.0 S 33.6 0.0 1.4
02:52 12.6 12.5 99 1010.4 22.1 S 28.2 0.0 1.4
03:00 12.6 12.5 99 1010.4 18.3 WSW 28.2 0.0 1.4
09:12 10.0 9.9 99 1010.4 19.7 N 23.5 0.8 2.0
09:12 10.0 9.9 99 1010.4 19.7 N 23.5 0.8 2.0
09:15 9.8 9.7 99 1010.4 16.8 N 23.5 0.0 2.0
09:16 9.8 9.7 99 1010.4 15.2 W 23.5 0.0 2.0
09:17 9.8 9.7 99 1010.4 12.1 NW 23.5 0.0 2.0
02:54 12.6 12.5 99 1010.3 25.9 S 28.2 0.0 1.4
02:58 12.6 12.5 99 1010.3 17.4 SE 28.2 0.0 1.4
09:10 10.1 10.0 99 1010.3 17.4 NW 23.5 0.8 2.0
09:13 10.0 9.9 99 1010.3 23.5 N 23.5 0.0 2.0
09:14 9.9 9.8 99 1010.3 12.1 NW 23.5 0.0 2.0
02:51 12.6 12.5 99 1010.2 27.3 S 28.2 0.0 1.4
02:53 12.6 12.5 99 1010.2 25.9 NNE 28.2 0.0 1.4
02:55 12.6 12.5 99 1010.2 23.5 S 28.2 0.0 1.4
02:57 12.6 12.5 99 1010.2 23.5 S 28.2 0.0 1.4
02:59 12.6 12.5 99 1010.2 22.8 S 28.2 0.0 1.4
03:03 12.6 12.5 99 1010.2 28.9 S 28.9 0.0 1.4
09:20 9.7 9.6 99 1010.2 19.7 W 23.5 0.0 2.0
03:02 12.6 12.5 99 1010.1 28.2 S 28.2 0.0 1.4
03:05 12.6 12.5 99 1010.1 22.8 S 28.9 0.0 1.4
03:05 12.6 12.5 99 1010.1 22.8 S 28.9 0.0 1.4
03:08 12.6 12.5 99 1010.1 26.6 SE 28.9 0.0 1.4
03:09 12.6 12.5 99 1010.1 22.8 S 28.9 0.0 1.4
03:10 12.6 12.5 99 1010.1 25.9 WSW 28.9 0.0 1.4
03:19 12.6 12.5 99 1010.1 30.4 S 32.7 0.0 1.4
03:26 12.6 12.5 99 1010.1 22.8 S 33.6 0.0 1.4
03:28 12.7 12.6 99 1010.1 15.9 S 33.6 0.0 1.4
03:28 12.7 12.6 99 1010.1 15.9 S 33.6 0.0 1.4
09:07 10.2 10.1 99 1010.1 23.5 NW 23.5 0.0 2.0
09:09 10.1 10.0 99 1010.1 13.0 NW 23.5 0.8 2.0
09:09 10.1 10.0 99 1010.1 13.0 NW 23.5 0.8 2.0
03:01 12.6 12.5 99 1010.0 22.8 S 28.2 0.0 1.4
03:04 12.6 12.5 99 1010.0 22.1 WSW 28.9 0.0 1.4
03:07 12.6 12.5 99 1010.0 23.5 S 28.9 0.0 1.4
03:07 12.6 12.5 99 1010.0 23.5 S 28.9 0.0 1.4
03:11 12.6 12.5 99 1010.0 23.5 S 29.8 0.0 1.4
03:14 12.6 12.5 99 1010.0 24.4 SE 29.8 0.0 1.4
03:17 12.6 12.5 99 1010.0 30.4 WSW 30.4 0.0 1.4
03:25 12.6 12.5 99 1010.0 20.6 W 33.6 0.0 1.4
03:12 12.6 12.5 99 1009.9 28.2 S 29.8 0.0 1.4
03:18 12.6 12.5 99 1009.9 32.7 S 32.7 0.0 1.4
03:20 12.6 12.5 99 1009.9 28.9 S 32.7 0.0 1.4
03:27 12.6 12.5 99 1009.9 22.8 S 33.6 0.0 1.4
03:29 12.7 12.6 99 1009.9 20.6 NW 33.6 0.0 1.4
03:33 12.7 12.6 99 1009.9 30.4 S 30.4 0.0 1.4
03:39 12.7 12.6 99 1009.9 24.4 S 30.4 0.0 1.4
09:03 10.4 10.3 99 1009.9 15.2 W 17.4 0.0 1.9
09:06 10.2 10.1 99 1009.9 17.4 W 18.3 0.0 1.9
09:06 10.2 10.1 99 1009.9 17.4 W 18.3 0.0 1.9
03:13 12.6 12.5 99 1009.8 21.3 S 29.8 0.0 1.4
03:16 12.6 12.5 99 1009.8 30.4 WSW 30.4 0.0 1.4
03:21 12.6 12.5 99 1009.8 23.5 WSW 33.6 0.0 1.4
03:22 12.6 12.5 99 1009.8 20.6 WSW 33.6 0.0 1.4
03:23 12.6 12.5 99 1009.8 25.1 NNW 33.6 0.0 1.4
03:30 12.7 12.6 99 1009.8 20.6 S 33.6 0.0 1.4
03:31 12.6 12.5 99 1009.8 25.1 SE 28.2 0.0 1.4
03:34 12.7 12.6 99 1009.8 19.7 SE 30.4 0.8 1.4
03:35 12.6 12.5 99 1009.8 22.8 WSW 30.4 0.8 1.4
03:42 12.6 12.5 99 1009.8 20.6 WSW 30.4 0.0 1.4
09:01 10.4 10.3 99 1009.8 15.2 W 17.4 0.0 1.9
09:02 10.4 10.3 99 1009.8 15.2 W 17.4 0.0 1.9
03:24 12.7 12.6 99 1009.7 25.1 S 33.6 0.0 1.4
03:32 12.7 12.6 99 1009.7 23.5 WSW 28.2 0.0 1.4
03:37 12.6 12.5 99 1009.7 26.6 WSW 30.4 0.8 1.4
03:40 12.6 12.5 99 1009.7 28.9 S 30.4 0.0 1.4
03:41 12.6 12.5 99 1009.7 25.1 S 30.4 0.0 1.4
08:58 10.5 10.4 99 1009.7 13.0 NW 17.4 0.0 1.9
09:00 10.4 10.3 99 1009.7 15.2 W 17.4 0.0 1.9
09:04 10.3 10.2 99 1009.7 18.3 W 18.3 0.0 1.9
09:05 10.2 10.1 99 1009.7 15.2 N 18.3 0.0 1.9
03:43 12.6 12.5 99 1009.6 22.1 NNW 30.4 0.0 1.4
03:45 12.6 12.5 99 1009.6 19.7 S 29.8 0.0 1.4
03:47 12.6 12.5 99 1009.6 29.8 S 29.8 0.0 1.4
03:47 12.6 12.5 99 1009.6 29.8 S 29.8 0.0 1.4
03:48 12.6 12.5 99 1009.6 26.6 S 29.8 0.0 1.4
08:55 10.5 10.4 99 1009.6 17.4 WSW 17.4 0.0 1.9
08:56 10.5 10.4 99 1009.6 10.7 WSW 17.4 0.0 1.9
08:57 10.5 10.4 99 1009.6 7.6 NW 17.4 0.0 1.9
08:59 10.4 10.3 99 1009.6 15.9 W 17.4 0.0 1.9
03:38 12.6 12.5 99 1009.5 22.8 S 30.4 0.8 1.4
03:44 12.7 12.6 99 1009.5 29.8 S 29.8 0.0 1.4
03:50 12.6 12.5 99 1009.5 18.3 S 29.8 0.0 1.4
03:52 12.6 12.5 99 1009.5 15.2 S 29.8 0.0 1.5
03:54 12.6 12.5 99 1009.5 24.4 S 29.8 0.8 1.5
08:48 10.7 10.6 99 1009.5 17.4 NW 18.3 0.0 1.9
08:49 10.7 10.6 99 1009.5 13.0 NW 17.4 0.0 1.9
08:51 10.6 10.5 99 1009.5 10.7 S 17.4 0.0 1.9
08:52 10.6 10.5 99 1009.5 13.6 W 17.4 0.0 1.9
08:53 10.6 10.5 99 1009.5 12.1 N 17.4 0.0 1.9
03:49 12.6 12.5 99 1009.4 24.4 NNE 29.8 0.0 1.4
03:51 12.6 12.5 99 1009.4 19.0 S 29.8 0.0 1.4
03:53 12.6 12.5 99 1009.4 22.8 S 29.8 0.8 1.5
03:57 12.6 12.5 99 1009.4 15.9 S 29.8 0.8 1.5
08:47 10.7 10.6 99 1009.4 12.1 NW 18.3 0.0 1.9
08:50 10.6 10.5 99 1009.4 12.1 NW 17.4 0.0 1.9
03:46 12.6 12.5 99 1009.3 23.5 SE 29.8 0.0 1.4
03:58 12.6 12.5 99 1009.3 18.3 S 26.6 0.0 1.5
03:59 12.6 12.5 99 1009.3 22.8 WSW 25.9 0.0 1.5
04:02 12.6 12.5 99 1009.3 24.4 S 25.9 0.0 1.5
08:42 10.9 10.8 99 1009.3 13.6 NW 20.6 0.8 1.9
08:43 10.9 10.8 99 1009.3 14.5 W 20.6 0.8 1.9
08:44 10.9 10.8 99 1009.3 13.6 W 20.6 0.8 1.9
08:45 10.8 10.7 99 1009.3 15.9 N 20.6 0.0 1.9
08:46 10.8 10.7 99 1009.3 11.4 W 20.6 0.0 1.9
03:56 12.6 12.5 99 1009.2 20.6 W 29.8 0.8 1.5
04:00 12.6 12.5 99 1009.2 24.4 S 25.9 0.0 1.5
04:03 12.6 12.5 99 1009.2 24.4 S 25.9 0.0 1.5
04:04 12.6 12.5 99 1009.2 24.4 S 25.9 0.0 1.5
04:08 12.5 12.4 99 1009.2 20.6 S 25.9 0.0 1.5
08:36 11.2 11.1 99 1009.2 20.6 NNW 20.6 0.0 1.8
08:38 11.1 11.0 99 1009.2 18.3 NW 20.6 0.8 1.8
08:41 11.0 10.9 99 1009.2 15.2 W 20.6 1.5 1.9
04:01 12.6 12.5 99 1009.1 24.4 S 25.9 0.0 1.5
04:05 12.6 12.5 99 1009.1 24.4 S 24.4 0.0 1.5
04:05 12.6 12.5 99 1009.1 24.4 S 24.4 0.0 1.5
04:07 12.5 12.4 99 1009.1 25.9 S 25.9 0.0 1.5
04:07 12.5 12.4 99 1009.1 25.9 S 25.9 0.0 1.5
04:11 12.5 12.4 99 1009.1 22.1 SE 29.8 0.0 1.5
04:15 12.5 12.4 99 1009.1 24.4 S 29.8 0.0 1.5
04:16 12.5 12.4 99 1009.1 24.4 WSW 29.8 0.0 1.5
08:37 11.2 11.1 99 1009.1 20.6 W 20.6 0.8 1.8
08:39 11.0 10.9 99 1009.1 16.8 NW 20.6 0.8 1.9
04:13 12.5 12.4 99 1009.0 27.3 S 29.8 0.0 1.5
04:17 12.5 12.4 99 1009.0 18.3 WSW 29.8 0.0 1.5
04:18 12.5 12.4 99 1009.0 26.6 S 29.8 0.0 1.5
04:23 12.5 12.4 99 1009.0 13.6 SE 27.3 0.0 1.5
08:35 11.3 11.2 99 1009.0 11.4 W 19.0 0.0 1.8
04:10 12.5 12.4 99 1008.9 29.8 S 29.8 0.0 1.5
04:12 12.5 12.4 99 1008.9 22.1 WNW 29.8 0.0 1.5
04:14 12.5 12.4 99 1008.9 24.4 S 29.8 0.0 1.5
04:19 12.5 12.4 99 1008.9 25.1 S 29.8 0.0 1.5
04:21 12.5 12.4 99 1008.9 19.0 NW 27.3 0.0 1.5
04:22 12.5 12.4 99 1008.9 18.3 SE 27.3 0.0 1.5
04:22 12.5 12.4 99 1008.9 18.3 SE 27.3 0.0 1.5
04:25 12.5 12.4 99 1008.9 22.8 S 26.6 0.0 1.5
04:36 12.5 12.4 99 1008.9 22.8 SE 27.3 0.0 1.5
08:32 11.3 11.2 99 1008.9 17.4 W 20.6 0.0 1.8
08:33 11.3 11.2 99 1008.9 19.0 W 20.6 0.0 1.8
08:34 11.3 11.2 99 1008.9 12.1 W 19.0 0.0 1.8
08:40 11.0 10.9 99 1008.9 15.2 NE 20.6 1.5 1.9
04:20 12.5 12.4 99 1008.8 19.7 S 29.8 0.0 1.5
04:24 12.5 12.4 99 1008.8 19.0 S 26.6 0.0 1.5
04:26 12.5 12.4 99 1008.8 21.3 NW 26.6 0.0 1.5
04:27 12.5 12.4 99 1008.8 15.9 S 26.6 0.0 1.5
04:37 12.5 12.4 99 1008.8 23.5 S 27.3 0.0 1.5
08:31 11.3 11.2 99 1008.8 13.0 NW 20.6 0.0 1.8
04:28 12.5 12.4 99 1008.7 15.9 S 25.1 0.0 1.5
04:30 12.5 12.4 99 1008.7 13.0 S 22.8 0.0 1.5
04:32 12.5 12.4 99 1008.7 25.9 WSW 25.9 0.0 1.5
04:33 12.5 12.4 99 1008.7 27.3 S 27.3 0.0 1.5
04:34 12.5 12.4 99 1008.7 16.8 WSW 27.3 0.0 1.5
04:35 12.5 12.4 99 1008.7 23.5 S 27.3 0.0 1.5
04:39 12.5 12.4 99 1008.7 26.6 NNE 27.3 0.0 1.5
04:41 12.5 12.4 99 1008.7 21.3 S 27.3 0.0 1.5
04:43 12.5 12.4 99 1008.7 25.1 S 26.6 0.0 1.5
04:45 12.5 12.4 99 1008.7 23.5 N 26.6 0.0 1.5
08:30 11.3 11.2 99 1008.7 15.9 W 20.6 0.0 1.8
04:29 12.5 12.4 99 1008.6 14.5 S 22.8 0.0 1.5
04:38 12.5 12.4 99 1008.6 21.3 S 27.3 0.0 1.5
04:40 12.5 12.4 99 1008.6 25.1 S 27.3 0.0 1.5
04:42 12.5 12.4 99 1008.6 19.7 NE 27.3 0.0 1.5
04:42 12.5 12.4 99 1008.6 19.7 NE 27.3 0.0 1.5
04:44 12.5 12.4 99 1008.6 17.4 S 26.6 0.0 1.5
04:46 12.5 12.4 99 1008.6 28.2 S 28.2 0.0 1.5
04:47 12.5 12.4 99 1008.6 19.7 S 28.2 0.0 1.5
04:48 12.5 12.4 99 1008.5 19.7 S 28.2 0.0 1.5
04:49 12.5 12.4 99 1008.5 21.3 WSW 28.2 0.0 1.5
04:51 12.5 12.4 99 1008.5 20.6 S 28.2 0.0 1.5
04:52 12.5 12.4 99 1008.5 24.4 S 28.2 0.0 1.5
04:53 12.5 12.4 99 1008.5 21.3 WSW 28.2 0.0 1.5
04:54 12.5 12.4 99 1008.5 19.7 WSW 28.2 0.0 1.5
04:58 12.4 12.3 99 1008.5 28.9 WSW 28.9 0.0 1.5
08:22 11.5 11.4 99 1008.5 10.7 NW 17.4 0.0 1.8
08:23 11.4 11.3 99 1008.5 20.6 N 20.6 0.0 1.8
08:24 11.5 11.4 99 1008.5 16.8 WSW 20.6 0.0 1.8
08:25 11.4 11.3 99 1008.5 11.4 WSW 20.6 0.0 1.8
08:26 11.4 11.3 99 1008.5 14.5 NW 20.6 0.0 1.8
08:28 11.3 11.2 99 1008.5 13.0 WSW 20.6 0.0 1.8
08:29 11.3 11.2 99 1008.5 14.5 WSW 20.6 0.0 1.8
04:55 12.5 12.4 99 1008.4 20.6 S 28.2 0.0 1.5
08:18 11.6 11.5 99 1008.4 15.9 WSW 17.4 0.0 1.8
08:27 11.4 11.3 99 1008.4 14.5 N 20.6 0.0 1.8
04:56 12.5 12.4 99 1008.3 20.6 WSW 28.2 0.0 1.5
04:59 12.5 12.4 99 1008.3 29.8 SE 29.8 0.0 1.5
05:01 12.5 12.4 99 1008.3 22.1 S 29.8 0.0 1.5
05:02 12.5 12.4 99 1008.3 22.1 S 29.8 0.0 1.5
05:03 12.5 12.4 99 1008.3 22.1 S 29.8 0.0 1.5
05:03 12.5 12.4 99 1008.3 22.1 S 29.8 0.0 1.5
05:04 12.5 12.4 99 1008.3 22.1 S 29.8 0.0 1.5
05:05 12.4 12.3 99 1008.3 31.1 WSW 31.1 0.0 1.5
05:10 12.4 12.3 99 1008.3 21.3 SE 31.1 0.0 1.5
08:13 11.7 11.6 99 1008.3 17.4 W 17.4 0.0 1.8
08:16 11.6 11.5 99 1008.3 15.9 N 17.4 0.0 1.8
08:19 11.5 11.4 99 1008.3 12.1 WSW 17.4 0.0 1.8
08:20 11.5 11.4 99 1008.3 16.8 NW 17.4 0.0 1.8
08:21 11.5 11.4 99 1008.3 13.6 W 17.4 0.0 1.8
04:57 12.5 12.4 99 1008.2 17.4 WSW 24.4 0.0 1.5
05:00 12.5 12.4 99 1008.2 22.1 S 29.8 0.0 1.5
05:07 12.4 12.3 99 1008.2 22.1 WSW 31.1 0.0 1.5
05:07 12.4 12.3 99 1008.2 22.1 WSW 31.1 0.0 1.5
05:09 12.4 12.3 99 1008.2 19.0 S 31.1 0.0 1.5
05:09 12.4 12.3 99 1008.2 19.0 S 31.1 0.0 1.5
05:11 12.4 12.3 99 1008.2 24.4 S 31.1 0.0 1.5
08:14 11.7 11.6 99 1008.2 13.0 W 17.4 0.0 1.8
08:15 11.7 11.6 99 1008.2 17.4 W 17.4 0.0 1.8
08:17 11.6 11.5 99 1008.2 12.1 W 17.4 0.0 1.8
05:12 12.4 12.3 99 1008.1 28.9 S 31.1 0.0 1.5
05:13 12.4 12.3 99 1008.1 22.1 S 31.1 0.0 1.5
05:14 12.4 12.3 99 1008.1 28.9 SE 31.1 0.0 1.5
05:17 12.4 12.3 99 1008.1 25.1 S 28.9 0.8 1.6
05:24 12.4 12.3 99 1008.1 21.3 S 28.9 0.8 1.6
08:09 11.8 11.7 99 1008.1 10.7 NW 16.8 0.0 1.8
08:09 11.8 11.7 99 1008.1 10.7 NW 16.8 0.0 1.8
08:12 11.8 11.7 99 1008.1 13.0 WSW 16.8 0.0 1.8
08:12 11.8 11.7 99 1008.1 13.0 WSW 16.8 0.0 1.8
05:20 12.4 12.3 99 1008.0 17.4 S 28.9 0.8 1.6
05:21 12.4 12.3 99 1008.0 21.3 S 28.9 0.8 1.6
05:22 12.4 12.3 99 1008.0 24.4 S 28.9 0.0 1.6
08:04 11.8 11.7 99 1008.0 9.8 W 15.2 0.0 1.8
08:10 11.8 11.7 99 1008.0 13.0 W 16.8 0.0 1.8
05:15 12.4 12.3 99 1007.9 16.8 WSW 31.1 0.0 1.5
05:18 12.4 12.3 99 1007.9 24.4 S 28.9 0.8 1.6
05:19 12.4 12.3 99 1007.9 15.9 S 28.9 0.8 1.6
05:23 12.4 12.3 99 1007.9 22.1 S 28.9 0.8 1.6
05:26 12.4 12.3 99 1007.9 19.7 WSW 25.9 0.8 1.6
05:33 12.3 12.2 99 1007.9 23.5 S 28.9 1.5 1.8
05:42 12.3 12.2 99 1007.9 18.3 NNW 25.1 0.0 1.8
08:01 11.8 11.7 99 1007.9 14.5 WSW 18.3 0.0 1.8
08:03 11.8 11.7 99 1007.9 14.5 W 17.4 0.0 1.8
08:05 11.8 11.7 99 1007.9 7.6 WSW 14.5 0.0 1.8
08:06 11.8 11.7 99 1007.9 11.4 WSW 14.5 0.0 1.8
08:06 11.8 11.7 99 1007.9 11.4 WSW 14.5 0.0 1.8
08:07 11.8 11.7 99 1007.9 9.8 NW 16.8 0.0 1.8
05:25 12.4 12.3 99 1007.8 19.7 SE 25.9 0.8 1.6
05:27 12.3 12.2 99 1007.8 18.3 WSW 28.9 0.8 1.6
05:29 12.4 12.3 99 1007.8 24.4 WSW 28.9 0.0 1.6
05:29 12.4 12.3 99 1007.8 24.4 WSW 28.9 0.0 1.6
05:32 12.4 12.3 99 1007.8 15.9 WSW 28.9 0.8 1.8
05:34 12.3 12.2 99 1007.8 21.3 S 28.9 1.5 1.8
05:43 12.3 12.2 99 1007.8 21.3 WSW 25.1 0.0 1.8
07:56 11.8 11.7 99 1007.8 10.7 W 18.3 0.0 1.8
07:59 11.8 11.7 99 1007.8 13.0 W 18.3 0.0 1.8
08:00 11.8 11.7 99 1007.8 14.5 WSW 18.3 0.0 1.8
08:02 11.8 11.7 99 1007.8 12.1 W 17.4 0.0 1.8
05:28 12.4 12.3 99 1007.7 19.0 WSW 28.9 0.0 1.6
05:30 12.4 12.3 99 1007.7 24.4 WSW 28.9 0.0 1.7
05:31 12.4 12.3 99 1007.7 22.8 WSW 28.9 0.8 1.7
05:36 12.3 12.2 99 1007.7 17.4 S 28.9 0.8 1.8
05:38 12.4 12.3 99 1007.7 19.7 S 28.2 0.0 1.8
05:40 12.4 12.3 99 1007.7 19.7 S 28.2 0.0 1.8
05:45 12.3 12.2 99 1007.7 25.9 S 25.9 0.0 1.8
05:46 12.4 12.3 99 1007.7 25.9 S 25.9 0.0 1.8
05:47 12.3 12.2 99 1007.7 19.0 S 25.9 0.0 1.8
05:48 12.3 12.2 99 1007.7 19.0 SE 25.9 0.0 1.8
05:49 12.3 12.2 99 1007.7 19.7 S 25.9 0.0 1.8
05:51 12.3 12.2 99 1007.7 20.6 S 25.9 0.0 1.8
05:54 12.3 12.2 99 1007.7 24.4 WSW 27.3 0.0 1.8
05:59 12.3 12.2 99 1007.7 22.8 S 27.3 0.0 1.8
07:55 11.8 11.7 99 1007.7 13.6 WSW 18.3 0.0 1.8
07:58 11.8 11.7 99 1007.7 8.3 W 18.3 0.0 1.8
05:35 12.3 12.2 99 1007.6 18.3 WSW 28.9 1.5 1.8
05:39 12.3 12.2 99 1007.6 22.8 WSW 28.2 0.0 1.8
05:44 12.4 12.3 99 1007.6 22.1 S 25.1 0.0 1.8
05:52 12.3 12.2 99 1007.6 20.6 S 25.9 0.0 1.8
05:53 12.3 12.2 99 1007.6 27.3 WSW 27.3 0.0 1.8
05:55 12.3 12.2 99 1007.6 22.8 S 27.3 0.0 1.8
05:56 12.3 12.2 99 1007.6 17.4 SE 27.3 0.0 1.8
05:57 12.3 12.2 99 1007.6 22.8 S 27.3 0.0 1.8
06:04 12.3 12.2 99 1007.6 23.5 NNE 27.3 0.0 1.8
05:41 12.4 12.3 99 1007.5 25.1 S 28.2 0.0 1.8
05:50 12.4 12.3 99 1007.5 17.4 S 25.9 0.0 1.8
05:50 12.4 12.3 99 1007.5 17.4 S 25.9 0.0 1.8
06:00 12.3 12.2 99 1007.5 23.5 NNE 27.3 0.0 1.8
06:02 12.3 12.2 99 1007.5 23.5 NNE 27.3 0.0 1.8
06:05 12.3 12.2 99 1007.5 19.0 WSW 27.3 0.0 1.8
06:05 12.3 12.2 99 1007.5 19.0 WSW 27.3 0.0 1.8
06:07 12.3 12.2 99 1007.5 22.8 S 27.3 0.0 1.8
06:07 12.3 12.2 99 1007.5 22.8 S 27.3 0.0 1.8
06:08 12.3 12.2 99 1007.5 28.9 S 28.9 0.0 1.8
06:11 12.3 12.2 99 1007.5 22.8 S 28.9 0.0 1.8
06:12 12.3 12.2 99 1007.5 20.6 S 28.9 0.0 1.8
06:22 12.2 12.1 99 1007.5 19.7 S 28.9 0.0 1.8
07:44 11.8 11.7 99 1007.5 12.1 WSW 15.9 0.0 1.8
07:44 11.8 11.7 99 1007.5 12.1 WSW 15.9 0.0 1.8
07:50 11.8 11.7 99 1007.5 18.3 W 18.3 0.0 1.8
07:52 11.8 11.7 99 1007.5 10.7 W 18.3 0.0 1.8
07:53 11.8 11.7 99 1007.5 17.4 WSW 18.3 0.0 1.8
07:54 11.8 11.7 99 1007.5 9.8 WSW 18.3 0.0 1.8
06:01 12.3 12.2 99 1007.4 23.5 NNE 27.3 0.0 1.8
06:03 12.3 12.2 99 1007.4 23.5 NNE 27.3 0.0 1.8
06:16 12.3 12.2 99 1007.4 20.6 S 28.9 0.0 1.8
06:18 12.3 12.2 99 1007.4 28.2 NW 28.9 0.0 1.8
06:21 12.3 12.2 99 1007.4 22.1 S 28.9 0.0 1.8
06:25 12.2 12.1 99 1007.4 23.5 WSW 28.9 0.0 1.8
06:28 12.2 12.1 99 1007.4 22.8 N 27.3 0.0 1.8
06:32 12.2 12.1 99 1007.4 19.0 S 27.3 0.0 1.8
06:36 12.2 12.1 99 1007.4 16.8 S 27.3 0.0 1.8
06:39 12.2 12.1 99 1007.4 20.6 S 27.3 0.0 1.8
06:48 12.1 12.0 99 1007.4 13.6 S 22.1 0.0 1.8
06:50 12.1 12.0 99 1007.4 17.4 S 23.5 0.0 1.8
06:54 12.1 12.0 99 1007.4 16.8 WSW 24.4 0.0 1.8
07:10 12.0 11.9 99 1007.4 11.4 W 20.6 0.0 1.8
07:20 12.0 11.9 99 1007.4 10.7 WSW 22.8 0.0 1.8
07:30 11.9 11.8 99 1007.4 19.7 WSW 21.3 0.0 1.8
07:34 11.9 11.8 99 1007.4 13.0 WSW 21.3 0.0 1.8
07:45 11.8 11.7 99 1007.4 13.0 WSW 15.9 0.0 1.8
07:46 11.8 11.7 99 1007.4 16.8 WSW 18.3 0.0 1.8
07:49 11.8 11.7 99 1007.4 8.3 W 18.3 0.0 1.8
07:51 11.8 11.7 99 1007.4 13.0 W 18.3 0.0 1.8
06:10 12.3 12.2 99 1007.3 20.6 WSW 28.9 0.0 1.8
06:10 12.3 12.2 99 1007.3 20.6 WSW 28.9 0.0 1.8
06:13 12.3 12.2 99 1007.3 16.8 WSW 28.9 0.0 1.8
06:14 12.3 12.2 99 1007.3 22.1 S 28.9 0.0 1.8
06:17 12.3 12.2 99 1007.3 28.9 S 28.9 0.0 1.8
06:19 12.3 12.2 99 1007.3 22.8 WSW 28.9 0.0 1.8
06:20 12.3 12.2 99 1007.3 17.4 WSW 28.9 0.0 1.8
06:23 12.3 12.2 99 1007.3 27.3 WSW 28.9 0.0 1.8
06:24 12.2 12.1 99 1007.3 20.6 WSW 28.9 0.0 1.8
06:24 12.2 12.1 99 1007.3 20.6 WSW 28.9 0.0 1.8
06:27 12.2 12.1 99 1007.3 22.1 S 28.2 0.0 1.8
06:29 12.2 12.1 99 1007.3 24.4 NW 27.3 0.0 1.8
06:33 12.2 12.1 99 1007.3 19.0 S 27.3 0.0 1.8
06:34 12.2 12.1 99 1007.3 23.5 S 25.1 0.0 1.8
06:40 12.2 12.1 99 1007.3 18.3 WSW 27.3 0.0 1.8
06:40 12.2 12.1 99 1007.3 18.3 WSW 27.3 0.0 1.8
06:42 12.2 12.1 99 1007.3 15.2 WSW 27.3 0.0 1.8
06:44 12.2 12.1 99 1007.3 15.9 S 27.3 0.0 1.8
06:55 12.1 12.0 99 1007.3 17.4 WSW 24.4 0.0 1.8
06:57 12.1 12.0 99 1007.3 16.8 WSW 24.4 0.0 1.8
07:09 12.1 12.0 99 1007.3 18.3 S 20.6 0.0 1.8
07:09 12.1 12.0 99 1007.3 18.3 S 20.6 0.0 1.8
07:12 12.0 11.9 99 1007.3 22.8 S 22.8 0.0 1.8
07:12 12.0 11.9 99 1007.3 22.8 S 22.8 0.0 1.8
07:21 12.0 11.9 99 1007.3 15.2 WSW 22.8 0.0 1.8
07:31 11.9 11.8 99 1007.3 13.6 WSW 21.3 0.0 1.8
07:33 11.9 11.8 99 1007.3 20.6 WSW 21.3 0.0 1.8
07:35 11.9 11.8 99 1007.3 13.6 WSW 21.3 0.0 1.8
07:37 11.9 11.8 99 1007.3 11.4 N 21.3 0.0 1.8
07:38 11.9 11.8 99 1007.3 10.7 WSW 21.3 0.0 1.8
07:38 11.9 11.8 99 1007.3 10.7 WSW 21.3 0.0 1.8
07:39 11.8 11.7 99 1007.3 14.5 WSW 20.6 0.0 1.8
07:41 11.8 11.7 99 1007.3 15.9 W 20.6 0.0 1.8
07:42 11.8 11.7 99 1007.3 13.6 WSW 20.6 0.0 1.8
07:43 11.8 11.7 99 1007.3 14.5 NW 20.6 0.0 1.8
07:47 11.8 11.7 99 1007.3 15.2 WSW 18.3 0.0 1.8
07:48 11.8 11.7 99 1007.3 18.3 WSW 18.3 0.0 1.8
06:26 12.2 12.1 99 1007.2 23.5 S 28.9 0.0 1.8
06:30 12.2 12.1 99 1007.2 20.6 NW 27.3 0.0 1.8
06:35 12.2 12.1 99 1007.2 27.3 WSW 27.3 0.0 1.8
06:37 12.2 12.1 99 1007.2 22.1 S 27.3 0.0 1.8
06:38 12.2 12.1 99 1007.2 22.1 WSW 27.3 0.0 1.8
06:43 12.2 12.1 99 1007.2 15.9 WSW 27.3 0.0 1.8
06:45 12.1 12.0 99 1007.2 22.1 S 22.1 0.0 1.8
06:46 12.2 12.1 99 1007.2 15.9 S 22.1 0.0 1.8
06:49 12.1 12.0 99 1007.2 23.5 WSW 23.5 0.0 1.8
06:51 12.1 12.0 99 1007.2 24.4 N 24.4 0.0 1.8
06:52 12.1 12.0 99 1007.2 20.6 WSW 24.4 0.0 1.8
06:53 12.1 12.0 99 1007.2 21.3 SW 24.4 0.0 1.8
06:56 12.1 12.0 99 1007.2 19.0 S 24.4 0.0 1.8
06:56 12.1 12.0 99 1007.2 19.0 S 24.4 0.0 1.8
06:58 12.1 12.0 99 1007.2 15.2 WSW 24.4 0.0 1.8
07:00 12.1 12.0 99 1007.2 19.7 WSW 24.4 0.0 1.8
07:01 12.1 12.0 99 1007.2 15.9 S 21.3 0.0 1.8
07:02 12.1 12.0 99 1007.2 20.6 WSW 21.3 0.0 1.8
07:04 12.1 12.0 99 1007.2 15.2 W 20.6 0.0 1.8
07:05 12.1 12.0 99 1007.2 18.3 S 20.6 0.0 1.8
07:07 12.0 11.9 99 1007.2 13.6 WSW 20.6 0.0 1.8
07:13 12.0 11.9 99 1007.2 19.0 S 22.8 0.0 1.8
07:14 12.0 11.9 99 1007.2 16.8 S 22.8 0.0 1.8
07:15 12.0 11.9 99 1007.2 15.9 WSW 22.8 0.0 1.8
07:16 12.0 11.9 99 1007.2 15.2 S 22.8 0.0 1.8
07:17 12.0 11.9 99 1007.2 13.6 WSW 22.8 0.0 1.8
07:19 12.0 11.9 99 1007.2 14.5 S 22.8 0.0 1.8
07:23 11.9 11.8 99 1007.2 13.0 NW 19.0 0.0 1.8
07:24 11.9 11.8 99 1007.2 19.7 NW 19.7 0.0 1.8
07:24 11.9 11.8 99 1007.2 19.7 NW 19.7 0.0 1.8
07:25 11.9 11.8 99 1007.2 20.6 WSW 20.6 0.0 1.8
07:26 11.9 11.8 99 1007.2 18.3 NW 20.6 0.0 1.8
07:27 11.9 11.8 99 1007.2 15.2 WSW 20.6 0.0 1.8
07:28 11.9 11.8 99 1007.2 13.0 S 20.6 0.0 1.8
07:32 11.9 11.8 99 1007.2 17.4 S 21.3 0.0 1.8
07:36 11.9 11.8 99 1007.2 15.2 WSW 21.3 0.0 1.8
06:41 12.2 12.1 99 1007.1 18.3 WSW 27.3 0.0 1.8
06:59 12.1 12.0 99 1007.1 19.7 WSW 24.4 0.0 1.8
07:06 12.0 11.9 99 1007.1 14.5 S 20.6 0.0 1.8
07:06 12.0 11.9 99 1007.1 14.5 S 20.6 0.0 1.8
07:22 12.0 11.9 99 1007.1 12.1 WSW 20.6 0.0 1.8

UK - WEATHER STATION TOPSITES - UK World Weather Websites

This is a private weather station, never base important decisions or events on data from this weather station. Although every effort has been made to make the data as accurate as possible it does not meet MetOffice standards. It is proved as a guide of local weather conditions. We accept no liability for any loss which may arise from use of the data.

Copyright © Carnkie Weather 2009 - 2017.